FIN79 EFHK-RJGG
Flight info
| Callsign | FIN79 |
|---|---|
| Flight time | N/A |
| Altitude | 32000 |
| Route | KOIVU Y123 LARTI DCT ORTAX DCT SOKVA/N0488F330 DCT ROLAV/N0486F340 DCT BOKSU DCT TOXAR DCT ROBTU/N0487F350 DCT KENIN DCT DOKUD DCT URELA DCT REVDA DCT UDROS UM859 KARDE UN644 ROLIN N644 ODILI/N0493F370 N644 LAGAS M747 SUBUT T916 BALUN/K0900F370 T916 PIGAL/K0887F390 M610 RULAD/K0887S1190 A343 POSOT B215 FKG W188 LIKMI W270 DKO W69 HUR B339 LADIX/K0889S1250 W34 VAPGU W100 ORAVA W201 UNSEK A326 DONVO G597 AGAVO/N0482F410 Y644 EGOBA Y697 LANAT Y51 SAMON Y511 CHESS |
| Aircraft | A359/H-SDE2E3GHIJ3J4J5LM1ORWXY/LB1D1 |
Departure
| Time | 2026-05-07 21:57 |
|---|---|
| Airport | Helsinki Vantaa Airport (EFHK) |
Arrival
| Time | N/A |
|---|---|
| Airport | Chubu Centrair International Airport (RJGG) |
| Time | Latitude | Longitude | Altitude | Speed | Heading |
|---|---|---|---|---|---|
| 2026-05-07 21:14 | 60.31402 | 24.96261 | 200 ft | 0 kts | 47° |
| 2026-05-07 21:44 | 60.31401 | 24.96260 | 167 ft | 2 kts | 48° |
| 2026-05-07 21:44 | 60.31385 | 24.96222 | 209 ft | 4 kts | 53° |
| 2026-05-07 21:44 | 60.31370 | 24.96183 | 209 ft | 4 kts | 33° |
| 2026-05-07 21:45 | 60.31353 | 24.96168 | 209 ft | 4 kts | 6° |
| 2026-05-07 21:45 | 60.31332 | 24.96170 | 209 ft | 4 kts | 330° |
| 2026-05-07 21:45 | 60.31312 | 24.96202 | 209 ft | 4 kts | 315° |
| 2026-05-07 21:45 | 60.31303 | 24.96220 | 205 ft | 1 kts | 317° |
| 2026-05-07 21:46 | 60.31302 | 24.96221 | 206 ft | 0 kts | 317° |
| 2026-05-07 21:49 | 60.31303 | 24.96221 | 205 ft | 1 kts | 317° |
| 2026-05-07 21:49 | 60.31336 | 24.96154 | 209 ft | 11 kts | 312° |
| 2026-05-07 21:49 | 60.31349 | 24.96016 | 201 ft | 10 kts | 248° |
| 2026-05-07 21:49 | 60.31301 | 24.95902 | 202 ft | 11 kts | 227° |
| 2026-05-07 21:50 | 60.31247 | 24.95781 | 206 ft | 12 kts | 228° |
| 2026-05-07 21:50 | 60.31187 | 24.95649 | 209 ft | 13 kts | 227° |
| 2026-05-07 21:50 | 60.31182 | 24.95492 | 202 ft | 12 kts | 305° |
| 2026-05-07 21:50 | 60.31242 | 24.95374 | 206 ft | 12 kts | 318° |
| 2026-05-07 21:51 | 60.31308 | 24.95254 | 209 ft | 13 kts | 317° |
| 2026-05-07 21:51 | 60.31376 | 24.95127 | 205 ft | 14 kts | 317° |
| 2026-05-07 21:51 | 60.31439 | 24.94984 | 205 ft | 13 kts | 298° |
| 2026-05-07 21:51 | 60.31415 | 24.94825 | 209 ft | 13 kts | 227° |
| 2026-05-07 21:52 | 60.31353 | 24.94692 | 209 ft | 13 kts | 227° |
| 2026-05-07 21:52 | 60.31289 | 24.94551 | 204 ft | 14 kts | 227° |
| 2026-05-07 21:52 | 60.31220 | 24.94398 | 201 ft | 15 kts | 227° |
| 2026-05-07 21:52 | 60.31147 | 24.94239 | 209 ft | 16 kts | 227° |
| 2026-05-07 21:53 | 60.31072 | 24.94071 | 205 ft | 17 kts | 227° |
| 2026-05-07 21:53 | 60.30992 | 24.93897 | 203 ft | 17 kts | 227° |
| 2026-05-07 21:53 | 60.30910 | 24.93715 | 207 ft | 18 kts | 227° |
| 2026-05-07 21:53 | 60.30835 | 24.93552 | 206 ft | 12 kts | 230° |
| 2026-05-07 21:54 | 60.30820 | 24.93461 | 201 ft | 0 kts | 272° |
| 2026-05-07 21:54 | 60.30821 | 24.93451 | 199 ft | 2 kts | 283° |
| 2026-05-07 21:54 | 60.30827 | 24.93429 | 203 ft | 1 kts | 302° |
| 2026-05-07 21:54 | 60.30835 | 24.93414 | 202 ft | 4 kts | 315° |
| 2026-05-07 21:55 | 60.30885 | 24.93362 | 209 ft | 12 kts | 336° |
| 2026-05-07 21:55 | 60.30977 | 24.93323 | 198 ft | 14 kts | 12° |
| 2026-05-07 21:55 | 60.31033 | 24.93423 | 206 ft | 0 kts | 47° |
| 2026-05-07 21:56 | 60.31048 | 24.93457 | 205 ft | 13 kts | 47° |
| 2026-05-07 21:56 | 60.31219 | 24.93832 | 208 ft | 68 kts | 47° |
| 2026-05-07 21:56 | 60.31695 | 24.94881 | 207 ft | 132 kts | 48° |
| 2026-05-07 21:56 | 60.32446 | 24.96541 | 218 ft | 185 kts | 47° |
| 2026-05-07 21:57 | 60.33301 | 24.98427 | 1090 ft | 176 kts | 43° |
| 2026-05-07 21:57 | 60.34123 | 25.00204 | 1960 ft | 168 kts | 41° |
| 2026-05-07 21:57 | 60.34936 | 25.01974 | 2381 ft | 179 kts | 43° |
| 2026-05-07 21:57 | 60.35823 | 25.03923 | 2603 ft | 198 kts | 44° |
| 2026-05-07 21:58 | 60.36804 | 25.06092 | 2812 ft | 220 kts | 44° |
| 2026-05-07 21:58 | 60.37880 | 25.08483 | 3085 ft | 239 kts | 44° |
| 2026-05-07 21:58 | 60.38921 | 25.11206 | 3561 ft | 252 kts | 59° |
| 2026-05-07 21:58 | 60.39264 | 25.14706 | 4113 ft | 263 kts | 95° |
| 2026-05-07 21:59 | 60.38690 | 25.18251 | 4744 ft | 268 kts | 115° |
| 2026-05-07 21:59 | 60.37856 | 25.21634 | 5417 ft | 271 kts | 116° |
| 2026-05-07 21:59 | 60.37009 | 25.25054 | 6065 ft | 274 kts | 116° |
| 2026-05-07 21:59 | 60.36162 | 25.28531 | 6727 ft | 277 kts | 116° |
| 2026-05-07 22:00 | 60.35311 | 25.32054 | 7390 ft | 281 kts | 117° |
| 2026-05-07 22:00 | 60.34201 | 25.35261 | 8000 ft | 285 kts | 137° |
| 2026-05-07 22:00 | 60.32514 | 25.37289 | 8649 ft | 284 kts | 166° |
| 2026-05-07 22:00 | 60.30566 | 25.37775 | 9331 ft | 284 kts | 182° |
| 2026-05-07 22:01 | 60.28582 | 25.37757 | 10014 ft | 287 kts | 184° |
| 2026-05-07 22:01 | 60.26552 | 25.37704 | 10511 ft | 298 kts | 184° |
| 2026-05-07 22:01 | 60.24443 | 25.37401 | 10763 ft | 311 kts | 195° |
| 2026-05-07 22:01 | 60.22454 | 25.35611 | 11022 ft | 319 kts | 221° |
| 2026-05-07 22:02 | 60.20747 | 25.32649 | 11349 ft | 331 kts | 227° |
| 2026-05-07 22:02 | 60.19046 | 25.29423 | 11777 ft | 341 kts | 227° |
| 2026-05-07 22:02 | 60.17308 | 25.26155 | 12427 ft | 344 kts | 227° |
| 2026-05-07 22:02 | 60.15541 | 25.22872 | 13120 ft | 346 kts | 227° |
| 2026-05-07 22:03 | 60.13767 | 25.19596 | 13806 ft | 348 kts | 228° |
| 2026-05-07 22:03 | 60.11973 | 25.16300 | 14419 ft | 351 kts | 228° |
| 2026-05-07 22:03 | 60.10162 | 25.12983 | 15031 ft | 353 kts | 228° |
| 2026-05-07 22:03 | 60.08344 | 25.09660 | 15659 ft | 355 kts | 228° |
| 2026-05-07 22:04 | 60.06514 | 25.06309 | 16321 ft | 357 kts | 228° |
| 2026-05-07 22:04 | 60.04681 | 25.02971 | 16979 ft | 359 kts | 228° |
| 2026-05-07 22:04 | 60.02819 | 24.99589 | 17651 ft | 361 kts | 228° |
| 2026-05-07 22:04 | 60.00948 | 24.96196 | 18291 ft | 364 kts | 228° |
| 2026-05-07 22:05 | 59.99104 | 24.92854 | 18826 ft | 366 kts | 228° |
| 2026-05-07 22:05 | 59.97176 | 24.89368 | 19402 ft | 368 kts | 228° |
| 2026-05-07 22:05 | 59.95270 | 24.85925 | 19950 ft | 370 kts | 228° |
| 2026-05-07 22:05 | 59.93352 | 24.82467 | 20490 ft | 373 kts | 228° |
| 2026-05-07 22:06 | 59.91463 | 24.79066 | 21037 ft | 374 kts | 228° |
| 2026-05-07 22:06 | 59.89482 | 24.75507 | 21601 ft | 376 kts | 228° |
| 2026-05-07 22:06 | 59.87557 | 24.72052 | 22128 ft | 379 kts | 227° |
| 2026-05-07 22:06 | 59.85530 | 24.68654 | 22632 ft | 386 kts | 222° |
| 2026-05-07 22:07 | 59.83145 | 24.66045 | 23138 ft | 399 kts | 207° |
| 2026-05-07 22:07 | 59.80485 | 24.64322 | 23691 ft | 406 kts | 202° |
| 2026-05-07 22:07 | 59.77728 | 24.62926 | 24115 ft | 411 kts | 200° |
| 2026-05-07 22:07 | 59.74925 | 24.61678 | 24521 ft | 414 kts | 199° |
| 2026-05-07 22:08 | 59.72099 | 24.60469 | 24947 ft | 416 kts | 199° |
| 2026-05-07 22:08 | 59.69263 | 24.59244 | 25374 ft | 418 kts | 199° |
| 2026-05-07 22:08 | 59.66416 | 24.57984 | 25789 ft | 420 kts | 199° |
| 2026-05-07 22:08 | 59.63533 | 24.56838 | 26202 ft | 425 kts | 197° |
| 2026-05-07 22:09 | 59.60608 | 24.55891 | 26626 ft | 428 kts | 195° |
| 2026-05-07 22:09 | 59.57644 | 24.55020 | 27049 ft | 430 kts | 195° |
| 2026-05-07 22:09 | 59.54717 | 24.54171 | 27446 ft | 433 kts | 195° |
| 2026-05-07 22:09 | 59.51692 | 24.53272 | 27851 ft | 435 kts | 195° |
| 2026-05-07 22:10 | 59.48697 | 24.52355 | 28251 ft | 436 kts | 195° |
| 2026-05-07 22:10 | 59.45687 | 24.51410 | 28629 ft | 439 kts | 195° |
| 2026-05-07 22:10 | 59.42665 | 24.50446 | 28999 ft | 441 kts | 195° |
| 2026-05-07 22:10 | 59.39632 | 24.49474 | 29376 ft | 443 kts | 195° |
| 2026-05-07 22:11 | 59.36616 | 24.48506 | 29724 ft | 445 kts | 195° |
| 2026-05-07 22:11 | 59.33554 | 24.47525 | 30089 ft | 447 kts | 195° |
| 2026-05-07 22:11 | 59.30468 | 24.46540 | 30376 ft | 450 kts | 195° |
| 2026-05-07 22:11 | 59.27374 | 24.45555 | 30648 ft | 452 kts | 195° |
| 2026-05-07 22:12 | 59.24264 | 24.44567 | 30885 ft | 455 kts | 195° |
| 2026-05-07 22:12 | 59.21129 | 24.43574 | 31129 ft | 457 kts | 195° |
| 2026-05-07 22:12 | 59.17978 | 24.42579 | 31370 ft | 460 kts | 195° |
| 2026-05-07 22:12 | 59.14814 | 24.41581 | 31607 ft | 462 kts | 195° |
| 2026-05-07 22:13 | 59.11638 | 24.40582 | 31840 ft | 464 kts | 194° |
| 2026-05-07 22:13 | 59.08447 | 24.39580 | 32066 ft | 466 kts | 194° |
| 2026-05-07 22:13 | 59.05233 | 24.38573 | 32284 ft | 468 kts | 194° |
| 2026-05-07 22:13 | 59.02022 | 24.37568 | 32576 ft | 468 kts | 194° |
| 2026-05-07 22:14 | 58.98807 | 24.36567 | 32914 ft | 467 kts | 194° |
| 2026-05-07 22:14 | 58.95603 | 24.35570 | 33238 ft | 466 kts | 194° |
| 2026-05-07 22:14 | 58.92406 | 24.34577 | 33538 ft | 466 kts | 194° |
| 2026-05-07 22:14 | 58.89199 | 24.33581 | 33828 ft | 465 kts | 194° |
| 2026-05-07 22:15 | 58.86037 | 24.32670 | 34106 ft | 467 kts | 191° |
| 2026-05-07 22:15 | 58.82779 | 24.32263 | 34355 ft | 469 kts | 187° |
| 2026-05-07 22:15 | 58.79517 | 24.32078 | 34592 ft | 470 kts | 186° |
| 2026-05-07 22:15 | 58.76248 | 24.31972 | 34804 ft | 470 kts | 186° |
| 2026-05-07 22:16 | 58.72980 | 24.31905 | 35017 ft | 470 kts | 185° |
| 2026-05-07 22:16 | 58.69697 | 24.31847 | 35136 ft | 472 kts | 185° |
| 2026-05-07 22:16 | 58.63076 | 24.31713 | 35159 ft | 477 kts | 185° |
| 2026-05-07 22:17 | 58.56453 | 24.31563 | 35148 ft | 476 kts | 185° |
| 2026-05-07 22:17 | 58.49842 | 24.31403 | 35156 ft | 475 kts | 185° |
| 2026-05-07 22:18 | 58.39904 | 24.31156 | 35155 ft | 475 kts | 185° |
| 2026-05-07 22:19 | 58.33305 | 24.30994 | 35156 ft | 474 kts | 185° |
| 2026-05-07 22:19 | 58.26755 | 24.30834 | 35152 ft | 473 kts | 185° |
| 2026-05-07 22:20 | 58.20175 | 24.30674 | 35154 ft | 472 kts | 185° |
| 2026-05-07 22:20 | 58.13609 | 24.30515 | 35151 ft | 472 kts | 185° |
| 2026-05-07 22:21 | 58.07047 | 24.30357 | 35150 ft | 471 kts | 185° |
| 2026-05-07 22:21 | 58.00502 | 24.30200 | 35151 ft | 470 kts | 186° |
| 2026-05-07 22:22 | 57.93973 | 24.30044 | 35146 ft | 469 kts | 186° |
| 2026-05-07 22:22 | 57.87460 | 24.29827 | 35143 ft | 466 kts | 188° |
| 2026-05-07 22:23 | 57.81026 | 24.28745 | 35148 ft | 463 kts | 191° |
| 2026-05-07 22:23 | 57.74624 | 24.27394 | 35137 ft | 462 kts | 191° |
| 2026-05-07 22:24 | 57.68229 | 24.26170 | 35135 ft | 462 kts | 191° |
| 2026-05-07 22:24 | 57.62899 | 24.25233 | 35139 ft | 462 kts | 190° |
| 2026-05-07 22:25 | 57.55466 | 24.23966 | 35147 ft | 461 kts | 190° |
| 2026-05-07 22:25 | 57.49077 | 24.22880 | 35134 ft | 461 kts | 190° |
| 2026-05-07 22:26 | 57.43729 | 24.21970 | 35138 ft | 460 kts | 190° |
| 2026-05-07 22:26 | 57.37398 | 24.20894 | 35136 ft | 460 kts | 190° |
| 2026-05-07 22:27 | 57.31033 | 24.19815 | 35132 ft | 459 kts | 190° |
| 2026-05-07 22:27 | 57.24671 | 24.18741 | 35130 ft | 459 kts | 190° |
| 2026-05-07 22:28 | 57.18318 | 24.17673 | 35130 ft | 458 kts | 190° |
| 2026-05-07 22:28 | 57.11975 | 24.16609 | 35126 ft | 458 kts | 190° |
| 2026-05-07 22:29 | 57.05627 | 24.15549 | 35130 ft | 457 kts | 190° |
| 2026-05-07 22:29 | 56.99292 | 24.14495 | 35131 ft | 457 kts | 190° |
| 2026-05-07 22:30 | 56.92949 | 24.13443 | 35130 ft | 457 kts | 190° |
| 2026-05-07 22:30 | 56.86625 | 24.12397 | 35128 ft | 456 kts | 190° |
| 2026-05-07 22:31 | 56.80303 | 24.11355 | 35129 ft | 455 kts | 190° |
| 2026-05-07 22:31 | 56.73987 | 24.10318 | 35125 ft | 455 kts | 190° |
| 2026-05-07 22:32 | 56.67723 | 24.09292 | 35124 ft | 454 kts | 190° |
| 2026-05-07 22:32 | 56.61436 | 24.08268 | 35118 ft | 453 kts | 190° |
| 2026-05-07 22:33 | 56.55169 | 24.07248 | 35119 ft | 452 kts | 190° |
| 2026-05-07 22:33 | 56.48901 | 24.06231 | 35119 ft | 452 kts | 190° |
| 2026-05-07 22:34 | 56.42636 | 24.05219 | 35113 ft | 452 kts | 190° |
| 2026-05-07 22:34 | 56.36376 | 24.04212 | 35111 ft | 451 kts | 190° |
| 2026-05-07 22:35 | 56.30144 | 24.02989 | 35113 ft | 448 kts | 195° |
| 2026-05-07 22:35 | 56.24141 | 24.00287 | 35105 ft | 444 kts | 200° |
| 2026-05-07 22:36 | 56.18196 | 23.97241 | 35111 ft | 444 kts | 200° |
| 2026-05-07 22:36 | 56.12269 | 23.94167 | 35109 ft | 444 kts | 200° |
| 2026-05-07 22:37 | 56.06362 | 23.91139 | 35110 ft | 444 kts | 200° |
| 2026-05-07 22:37 | 56.00425 | 23.88124 | 35111 ft | 444 kts | 200° |
| 2026-05-07 22:38 | 55.94477 | 23.85118 | 35117 ft | 444 kts | 200° |
| 2026-05-07 22:38 | 55.88531 | 23.82122 | 35115 ft | 444 kts | 200° |
| 2026-05-07 22:39 | 55.82583 | 23.79134 | 35116 ft | 444 kts | 200° |
| 2026-05-07 22:39 | 55.76638 | 23.76157 | 35112 ft | 444 kts | 199° |
| 2026-05-07 22:40 | 55.70680 | 23.73182 | 35107 ft | 445 kts | 199° |
| 2026-05-07 22:40 | 55.64720 | 23.70216 | 35100 ft | 445 kts | 199° |
| 2026-05-07 22:41 | 55.58756 | 23.67257 | 35092 ft | 446 kts | 199° |
| 2026-05-07 22:41 | 55.52785 | 23.64304 | 35087 ft | 446 kts | 199° |
| 2026-05-07 22:42 | 55.46810 | 23.61358 | 35092 ft | 446 kts | 199° |
| 2026-05-07 22:42 | 55.40821 | 23.58415 | 35086 ft | 446 kts | 199° |
| 2026-05-07 22:43 | 55.34870 | 23.55500 | 35088 ft | 447 kts | 199° |
| 2026-05-07 22:43 | 55.28867 | 23.52568 | 35086 ft | 447 kts | 199° |
| 2026-05-07 22:44 | 55.22869 | 23.49648 | 35083 ft | 447 kts | 199° |
| 2026-05-07 22:44 | 55.16876 | 23.46741 | 35085 ft | 447 kts | 199° |
| 2026-05-07 22:45 | 55.10871 | 23.43835 | 35078 ft | 447 kts | 199° |
| 2026-05-07 22:45 | 55.04876 | 23.40943 | 35076 ft | 447 kts | 199° |
| 2026-05-07 22:46 | 54.98869 | 23.38055 | 35082 ft | 447 kts | 199° |
| 2026-05-07 22:46 | 54.92900 | 23.35194 | 35072 ft | 447 kts | 199° |
| 2026-05-07 22:47 | 54.86895 | 23.32325 | 35074 ft | 448 kts | 199° |
| 2026-05-07 22:47 | 54.80892 | 23.29466 | 35077 ft | 448 kts | 199° |
| 2026-05-07 22:48 | 54.74883 | 23.26613 | 35075 ft | 448 kts | 199° |
| 2026-05-07 22:48 | 54.68871 | 23.23766 | 35071 ft | 448 kts | 199° |
| 2026-05-07 22:49 | 54.62868 | 23.20933 | 35073 ft | 448 kts | 199° |
| 2026-05-07 22:49 | 54.56855 | 23.18104 | 35071 ft | 448 kts | 199° |
| 2026-05-07 22:50 | 54.50843 | 23.15284 | 35072 ft | 448 kts | 199° |
| 2026-05-07 22:50 | 54.44829 | 23.12471 | 35072 ft | 448 kts | 199° |
| 2026-05-07 22:51 | 54.38810 | 23.09665 | 35072 ft | 448 kts | 199° |
| 2026-05-07 22:51 | 54.32792 | 23.06868 | 35066 ft | 448 kts | 199° |
| 2026-05-07 22:52 | 54.26731 | 23.04270 | 35067 ft | 450 kts | 195° |
| 2026-05-07 22:52 | 54.20552 | 23.02410 | 35068 ft | 452 kts | 193° |
| 2026-05-07 22:53 | 54.14345 | 23.00630 | 35064 ft | 452 kts | 194° |
| 2026-05-07 22:53 | 54.08152 | 22.98742 | 35055 ft | 452 kts | 194° |
| 2026-05-07 22:54 | 54.01997 | 22.96801 | 35065 ft | 453 kts | 194° |
| 2026-05-07 22:54 | 53.95803 | 22.94841 | 35059 ft | 453 kts | 194° |
| 2026-05-07 22:55 | 53.89600 | 22.92889 | 35059 ft | 454 kts | 194° |
| 2026-05-07 22:55 | 53.83379 | 22.90941 | 35057 ft | 454 kts | 194° |
| 2026-05-07 22:56 | 53.77161 | 22.89001 | 35048 ft | 455 kts | 194° |
| 2026-05-07 22:56 | 53.70929 | 22.87062 | 35051 ft | 455 kts | 194° |
| 2026-05-07 22:57 | 53.64694 | 22.85129 | 35051 ft | 456 kts | 194° |
| 2026-05-07 22:57 | 53.58445 | 22.83196 | 35049 ft | 456 kts | 194° |
| 2026-05-07 22:58 | 53.52236 | 22.81282 | 35050 ft | 457 kts | 194° |
| 2026-05-07 22:58 | 53.45935 | 22.79344 | 35048 ft | 458 kts | 194° |
| 2026-05-07 22:59 | 53.39667 | 22.77424 | 35046 ft | 458 kts | 194° |
| 2026-05-07 22:59 | 53.33394 | 22.75507 | 35044 ft | 458 kts | 194° |
| 2026-05-07 23:00 | 53.27155 | 22.73606 | 35038 ft | 459 kts | 194° |
| 2026-05-07 23:00 | 53.20830 | 22.71685 | 35045 ft | 459 kts | 194° |
| 2026-05-07 23:01 | 53.14579 | 22.69793 | 35038 ft | 460 kts | 194° |
| 2026-05-07 23:01 | 53.08285 | 22.67888 | 35039 ft | 460 kts | 194° |
| 2026-05-07 23:02 | 53.01976 | 22.65989 | 35038 ft | 461 kts | 194° |
| 2026-05-07 23:02 | 52.95666 | 22.64097 | 35036 ft | 461 kts | 194° |
| 2026-05-07 23:03 | 52.89352 | 22.62209 | 35030 ft | 461 kts | 194° |
| 2026-05-07 23:03 | 52.83032 | 22.60323 | 35027 ft | 462 kts | 193° |
| 2026-05-07 23:04 | 52.76708 | 22.58442 | 35029 ft | 462 kts | 193° |
| 2026-05-07 23:04 | 52.70371 | 22.56563 | 35025 ft | 462 kts | 193° |
| 2026-05-07 23:05 | 52.64038 | 22.54690 | 35023 ft | 462 kts | 193° |
| 2026-05-07 23:05 | 52.57700 | 22.52914 | 35021 ft | 463 kts | 191° |
| 2026-05-07 23:06 | 52.51286 | 22.51611 | 35020 ft | 464 kts | 190° |
| 2026-05-07 23:06 | 52.44903 | 22.50392 | 35016 ft | 464 kts | 190° |
| 2026-05-07 23:07 | 52.38500 | 22.49102 | 35014 ft | 463 kts | 191° |
| 2026-05-07 23:07 | 52.32096 | 22.47771 | 35014 ft | 463 kts | 191° |
| 2026-05-07 23:08 | 52.25700 | 22.46437 | 35012 ft | 463 kts | 191° |
| 2026-05-07 23:08 | 52.19309 | 22.45109 | 35005 ft | 463 kts | 191° |
| 2026-05-07 23:09 | 52.12926 | 22.43789 | 35005 ft | 462 kts | 191° |
| 2026-05-07 23:09 | 52.06581 | 22.42481 | 35011 ft | 462 kts | 191° |
| 2026-05-07 23:10 | 52.00196 | 22.41169 | 35008 ft | 463 kts | 191° |
| 2026-05-07 23:10 | 51.93816 | 22.39862 | 35003 ft | 462 kts | 191° |
| 2026-05-07 23:11 | 51.87420 | 22.38555 | 35010 ft | 463 kts | 191° |
| 2026-05-07 23:11 | 51.81038 | 22.37255 | 34999 ft | 463 kts | 191° |
| 2026-05-07 23:12 | 51.74646 | 22.35956 | 35004 ft | 462 kts | 191° |
| 2026-05-07 23:12 | 51.68261 | 22.34661 | 34999 ft | 462 kts | 191° |
| 2026-05-07 23:13 | 51.61917 | 22.33379 | 34997 ft | 462 kts | 191° |
| 2026-05-07 23:13 | 51.55536 | 22.32094 | 35000 ft | 462 kts | 191° |
| 2026-05-07 23:14 | 51.49157 | 22.30812 | 35000 ft | 462 kts | 191° |
| 2026-05-07 23:14 | 51.42773 | 22.29532 | 34999 ft | 462 kts | 191° |
| 2026-05-07 23:15 | 51.37425 | 22.28463 | 34998 ft | 462 kts | 191° |
| 2026-05-07 23:15 | 51.31084 | 22.27199 | 34995 ft | 462 kts | 191° |
| 2026-05-07 23:16 | 51.24700 | 22.25931 | 34997 ft | 462 kts | 191° |
| 2026-05-07 23:16 | 51.18320 | 22.24666 | 34995 ft | 462 kts | 191° |
| 2026-05-07 23:17 | 51.11930 | 22.23403 | 34996 ft | 462 kts | 191° |
| 2026-05-07 23:17 | 51.05539 | 22.22144 | 34991 ft | 462 kts | 191° |
| 2026-05-07 23:18 | 50.99161 | 22.20890 | 34991 ft | 462 kts | 191° |
| 2026-05-07 23:18 | 50.92775 | 22.19640 | 34988 ft | 462 kts | 191° |
| 2026-05-07 23:19 | 50.86400 | 22.18394 | 34992 ft | 462 kts | 190° |
| 2026-05-07 23:19 | 50.80018 | 22.17149 | 34990 ft | 462 kts | 190° |
| 2026-05-07 23:20 | 50.73633 | 22.15909 | 34986 ft | 462 kts | 190° |
| 2026-05-07 23:20 | 50.67258 | 22.14673 | 34984 ft | 462 kts | 190° |
| 2026-05-07 23:21 | 50.60877 | 22.13439 | 34988 ft | 462 kts | 190° |
| 2026-05-07 23:21 | 50.54496 | 22.12208 | 34986 ft | 462 kts | 190° |
| 2026-05-07 23:22 | 50.48160 | 22.10989 | 34985 ft | 462 kts | 190° |
| 2026-05-07 23:22 | 50.41786 | 22.09767 | 34992 ft | 461 kts | 190° |
| 2026-05-07 23:23 | 50.35415 | 22.08548 | 35000 ft | 461 kts | 190° |
| 2026-05-07 23:23 | 50.29045 | 22.07334 | 35009 ft | 461 kts | 190° |
| 2026-05-07 23:24 | 50.22678 | 22.06122 | 35018 ft | 461 kts | 190° |
| 2026-05-07 23:24 | 50.16307 | 22.04914 | 35022 ft | 461 kts | 190° |
| 2026-05-07 23:25 | 50.09937 | 22.03709 | 35022 ft | 461 kts | 190° |
| 2026-05-07 23:25 | 50.03571 | 22.02509 | 35021 ft | 460 kts | 190° |
| 2026-05-07 23:26 | 49.97252 | 22.01320 | 35013 ft | 460 kts | 190° |
| 2026-05-07 23:26 | 49.90885 | 22.00125 | 35008 ft | 460 kts | 190° |
| 2026-05-07 23:27 | 49.81341 | 21.98340 | 34997 ft | 461 kts | 189° |
| 2026-05-07 23:27 | 49.74973 | 21.97153 | 34992 ft | 461 kts | 189° |
| 2026-05-07 23:28 | 49.68605 | 21.95969 | 34992 ft | 461 kts | 189° |
| 2026-05-07 23:28 | 49.62247 | 21.94790 | 34997 ft | 461 kts | 189° |
| 2026-05-07 23:29 | 49.55877 | 21.93611 | 34999 ft | 461 kts | 189° |
| 2026-05-07 23:29 | 49.49516 | 21.92439 | 34997 ft | 460 kts | 189° |
| 2026-05-07 23:30 | 49.43177 | 21.91271 | 34999 ft | 461 kts | 189° |
| 2026-05-07 23:30 | 49.36815 | 21.90103 | 34998 ft | 461 kts | 189° |
| 2026-05-07 23:31 | 49.30451 | 21.88939 | 35011 ft | 461 kts | 189° |
| 2026-05-07 23:31 | 49.24079 | 21.87776 | 35009 ft | 460 kts | 189° |
| 2026-05-07 23:32 | 49.17763 | 21.86630 | 35005 ft | 453 kts | 189° |
| 2026-05-07 23:32 | 49.11529 | 21.85496 | 35006 ft | 451 kts | 189° |
| 2026-05-07 23:33 | 49.05293 | 21.84365 | 35006 ft | 451 kts | 189° |
| 2026-05-07 23:33 | 48.99052 | 21.83236 | 35005 ft | 452 kts | 189° |
| 2026-05-07 23:34 | 48.92807 | 21.82113 | 35005 ft | 452 kts | 189° |
| 2026-05-07 23:34 | 48.86482 | 21.82148 | 35009 ft | 458 kts | 178° |
| 2026-05-07 23:35 | 48.80202 | 21.83349 | 35009 ft | 460 kts | 176° |
| 2026-05-07 23:35 | 48.73842 | 21.84750 | 35007 ft | 461 kts | 175° |
| 2026-05-07 23:36 | 48.67489 | 21.86139 | 35009 ft | 461 kts | 176° |
| 2026-05-07 23:36 | 48.61130 | 21.87493 | 35009 ft | 462 kts | 176° |
| 2026-05-07 23:37 | 48.54755 | 21.88833 | 35008 ft | 462 kts | 176° |
| 2026-05-07 23:37 | 48.48381 | 21.90168 | 35010 ft | 462 kts | 176° |
| 2026-05-07 23:38 | 48.42011 | 21.91680 | 35019 ft | 466 kts | 171° |
| 2026-05-07 23:38 | 48.35936 | 21.95265 | 35014 ft | 476 kts | 154° |
| 2026-05-07 23:39 | 48.30775 | 22.01647 | 35013 ft | 487 kts | 138° |
| 2026-05-07 23:39 | 48.26248 | 22.09199 | 35022 ft | 490 kts | 136° |
| 2026-05-07 23:40 | 48.21769 | 22.16909 | 35020 ft | 490 kts | 136° |
| 2026-05-07 23:40 | 48.17253 | 22.24578 | 35019 ft | 490 kts | 136° |
| 2026-05-07 23:41 | 48.12705 | 22.32203 | 35020 ft | 490 kts | 136° |
| 2026-05-07 23:41 | 48.08147 | 22.39796 | 35024 ft | 490 kts | 136° |
| 2026-05-07 23:42 | 48.03577 | 22.47388 | 35024 ft | 491 kts | 136° |
| 2026-05-07 23:42 | 47.99012 | 22.54956 | 35024 ft | 491 kts | 136° |
| 2026-05-07 23:43 | 47.94435 | 22.62523 | 35030 ft | 491 kts | 136° |
| 2026-05-07 23:43 | 47.89852 | 22.70078 | 35036 ft | 491 kts | 136° |
| 2026-05-07 23:44 | 47.85301 | 22.77560 | 35042 ft | 491 kts | 136° |
| 2026-05-07 23:44 | 47.80708 | 22.85088 | 35045 ft | 491 kts | 136° |
| 2026-05-07 23:45 | 47.76107 | 22.92608 | 35046 ft | 491 kts | 136° |
| 2026-05-07 23:45 | 47.71509 | 23.00103 | 35046 ft | 491 kts | 136° |
| 2026-05-07 23:46 | 47.66903 | 23.07588 | 35044 ft | 491 kts | 136° |
| 2026-05-07 23:46 | 47.62294 | 23.15059 | 35043 ft | 491 kts | 136° |
| 2026-05-07 23:47 | 47.57679 | 23.22517 | 35047 ft | 491 kts | 136° |
| 2026-05-07 23:47 | 47.53088 | 23.29915 | 35044 ft | 491 kts | 136° |
| 2026-05-07 23:48 | 47.48462 | 23.37351 | 35047 ft | 491 kts | 137° |
| 2026-05-07 23:48 | 47.43827 | 23.44780 | 35043 ft | 491 kts | 137° |
| 2026-05-07 23:49 | 47.39182 | 23.52202 | 35048 ft | 491 kts | 137° |
| 2026-05-07 23:49 | 47.34536 | 23.59602 | 35052 ft | 492 kts | 137° |
| 2026-05-07 23:50 | 47.29889 | 23.66993 | 35049 ft | 492 kts | 137° |
| 2026-05-07 23:50 | 47.25233 | 23.74372 | 35054 ft | 492 kts | 137° |
| 2026-05-07 23:51 | 47.20569 | 23.81746 | 35053 ft | 491 kts | 137° |
| 2026-05-07 23:51 | 47.15909 | 23.89090 | 35056 ft | 491 kts | 137° |
| 2026-05-07 23:52 | 47.11253 | 23.96407 | 35066 ft | 491 kts | 137° |
| 2026-05-07 23:52 | 47.06585 | 24.03724 | 35047 ft | 491 kts | 137° |
| 2026-05-07 23:53 | 47.01949 | 24.10970 | 35041 ft | 490 kts | 137° |
| 2026-05-07 23:53 | 46.97279 | 24.18251 | 35056 ft | 490 kts | 137° |
| 2026-05-07 23:54 | 46.92609 | 24.25511 | 35054 ft | 489 kts | 137° |
| 2026-05-07 23:54 | 46.87934 | 24.32761 | 35059 ft | 489 kts | 137° |
| 2026-05-07 23:55 | 46.83261 | 24.39986 | 35059 ft | 489 kts | 137° |
| 2026-05-07 23:55 | 46.78581 | 24.47201 | 35057 ft | 490 kts | 137° |
| 2026-05-07 23:56 | 46.73892 | 24.54413 | 35056 ft | 490 kts | 137° |
| 2026-05-07 23:56 | 46.69190 | 24.61624 | 35054 ft | 490 kts | 137° |
| 2026-05-07 23:57 | 46.64490 | 24.68813 | 35056 ft | 490 kts | 137° |
| 2026-05-07 23:57 | 46.59777 | 24.76004 | 35055 ft | 491 kts | 137° |
| 2026-05-07 23:58 | 46.55093 | 24.83130 | 35057 ft | 491 kts | 137° |
| 2026-05-07 23:58 | 46.50362 | 24.90307 | 35062 ft | 492 kts | 137° |
| 2026-05-07 23:59 | 46.45632 | 24.97483 | 35056 ft | 492 kts | 136° |
| 2026-05-07 23:59 | 46.41128 | 25.04995 | 35061 ft | 494 kts | 133° |
| 2026-05-08 00:00 | 46.36726 | 25.12663 | 35068 ft | 495 kts | 133° |
| 2026-05-08 00:00 | 46.32287 | 25.20275 | 35068 ft | 495 kts | 134° |
| 2026-05-08 00:01 | 46.27812 | 25.27827 | 35066 ft | 495 kts | 134° |
| 2026-05-08 00:01 | 46.23312 | 25.35372 | 35065 ft | 495 kts | 134° |
| 2026-05-08 00:02 | 46.18813 | 25.42895 | 35063 ft | 495 kts | 134° |
| 2026-05-08 00:02 | 46.15066 | 25.49148 | 35064 ft | 495 kts | 134° |
| 2026-05-08 00:03 | 46.09826 | 25.57873 | 35061 ft | 495 kts | 134° |
| 2026-05-08 00:03 | 46.05310 | 25.65370 | 35063 ft | 495 kts | 134° |
| 2026-05-08 00:04 | 46.01523 | 25.71641 | 35068 ft | 495 kts | 134° |
| 2026-05-08 00:04 | 45.96999 | 25.79112 | 35062 ft | 495 kts | 134° |
| 2026-05-08 00:05 | 45.92472 | 25.86571 | 35077 ft | 495 kts | 134° |
| 2026-05-08 00:05 | 45.87944 | 25.94008 | 35070 ft | 495 kts | 134° |
| 2026-05-08 00:06 | 45.83438 | 26.01392 | 35073 ft | 495 kts | 134° |
| 2026-05-08 00:06 | 45.78888 | 26.08828 | 35068 ft | 495 kts | 134° |
| 2026-05-08 00:07 | 45.74345 | 26.16231 | 35070 ft | 495 kts | 134° |
| 2026-05-08 00:07 | 45.69786 | 26.23640 | 35068 ft | 495 kts | 134° |
| 2026-05-08 00:08 | 45.65222 | 26.31039 | 35068 ft | 496 kts | 134° |
| 2026-05-08 00:08 | 45.60663 | 26.38410 | 35068 ft | 496 kts | 134° |
| 2026-05-08 00:09 | 45.56121 | 26.45733 | 35065 ft | 495 kts | 134° |
| 2026-05-08 00:09 | 45.51543 | 26.53091 | 35059 ft | 495 kts | 134° |
| 2026-05-08 00:10 | 45.46945 | 26.60417 | 35060 ft | 495 kts | 135° |
| 2026-05-08 00:10 | 45.42245 | 26.67583 | 35062 ft | 495 kts | 136° |
| 2026-05-08 00:11 | 45.37521 | 26.74718 | 35061 ft | 495 kts | 135° |
| 2026-05-08 00:11 | 45.32814 | 26.81858 | 35060 ft | 495 kts | 135° |
| 2026-05-08 00:12 | 45.28107 | 26.89005 | 35058 ft | 495 kts | 135° |
| 2026-05-08 00:12 | 45.23386 | 26.96160 | 35060 ft | 495 kts | 135° |
| 2026-05-08 00:13 | 45.18701 | 27.03242 | 35066 ft | 495 kts | 135° |
| 2026-05-08 00:13 | 45.13979 | 27.10360 | 35066 ft | 495 kts | 135° |
| 2026-05-08 00:14 | 45.09248 | 27.17472 | 35067 ft | 496 kts | 135° |
| 2026-05-08 00:14 | 45.04506 | 27.24582 | 35067 ft | 496 kts | 135° |
| 2026-05-08 00:15 | 44.99765 | 27.31673 | 35066 ft | 496 kts | 136° |
| 2026-05-08 00:15 | 44.95016 | 27.38758 | 35073 ft | 497 kts | 136° |
| 2026-05-08 00:16 | 44.90294 | 27.45783 | 35073 ft | 497 kts | 136° |
| 2026-05-08 00:16 | 44.85535 | 27.52846 | 35075 ft | 497 kts | 136° |
| 2026-05-08 00:17 | 44.80764 | 27.59908 | 35081 ft | 497 kts | 136° |
| 2026-05-08 00:17 | 44.75995 | 27.66949 | 35076 ft | 497 kts | 136° |
| 2026-05-08 00:18 | 44.71208 | 27.74000 | 35079 ft | 498 kts | 136° |
| 2026-05-08 00:18 | 44.66426 | 27.81024 | 35075 ft | 498 kts | 136° |
| 2026-05-08 00:19 | 44.61618 | 27.88070 | 35083 ft | 498 kts | 136° |
| 2026-05-08 00:19 | 44.56813 | 27.95092 | 35085 ft | 499 kts | 136° |
| 2026-05-08 00:20 | 44.52004 | 28.02103 | 35089 ft | 499 kts | 136° |
| 2026-05-08 00:20 | 44.47185 | 28.09109 | 35097 ft | 499 kts | 136° |
| 2026-05-08 00:21 | 44.42358 | 28.16109 | 35094 ft | 500 kts | 136° |
| 2026-05-08 00:21 | 44.37547 | 28.23069 | 35099 ft | 500 kts | 136° |
| 2026-05-08 00:22 | 44.32710 | 28.30050 | 35101 ft | 501 kts | 136° |
| 2026-05-08 00:22 | 44.27855 | 28.37039 | 35102 ft | 501 kts | 136° |
| 2026-05-08 00:23 | 44.23000 | 28.44009 | 35103 ft | 501 kts | 136° |
| 2026-05-08 00:23 | 44.18128 | 28.50987 | 35105 ft | 502 kts | 136° |
| 2026-05-08 00:24 | 44.13259 | 28.57942 | 35104 ft | 502 kts | 136° |
| 2026-05-08 00:24 | 44.08373 | 28.64905 | 35104 ft | 502 kts | 136° |
| 2026-05-08 00:25 | 44.03487 | 28.71850 | 35109 ft | 503 kts | 136° |
| 2026-05-08 00:25 | 43.98591 | 28.78792 | 35111 ft | 503 kts | 136° |
| 2026-05-08 00:26 | 43.93695 | 28.85715 | 35108 ft | 503 kts | 136° |
| 2026-05-08 00:26 | 43.88784 | 28.92643 | 35110 ft | 504 kts | 136° |
| 2026-05-08 00:27 | 43.83864 | 28.99566 | 35113 ft | 504 kts | 136° |
| 2026-05-08 00:27 | 43.78939 | 29.06480 | 35112 ft | 505 kts | 136° |
| 2026-05-08 00:28 | 43.74033 | 29.13349 | 35111 ft | 505 kts | 136° |
| 2026-05-08 00:28 | 43.69162 | 29.20367 | 35112 ft | 506 kts | 134° |
| 2026-05-08 00:29 | 43.64418 | 29.27548 | 35109 ft | 506 kts | 133° |
| 2026-05-08 00:29 | 43.59657 | 29.34734 | 35114 ft | 506 kts | 133° |
| 2026-05-08 00:30 | 43.54879 | 29.41864 | 35114 ft | 507 kts | 134° |
| 2026-05-08 00:30 | 43.50068 | 29.48995 | 35113 ft | 507 kts | 134° |
| 2026-05-08 00:31 | 43.45253 | 29.56110 | 35113 ft | 508 kts | 134° |
| 2026-05-08 00:31 | 43.40428 | 29.63226 | 35115 ft | 509 kts | 134° |
| 2026-05-08 00:32 | 43.35608 | 29.70318 | 35112 ft | 509 kts | 134° |
| 2026-05-08 00:32 | 43.30787 | 29.77395 | 35117 ft | 509 kts | 134° |
| 2026-05-08 00:33 | 43.25938 | 29.84494 | 35117 ft | 510 kts | 134° |
| 2026-05-08 00:33 | 43.21081 | 29.91588 | 35117 ft | 510 kts | 134° |
| 2026-05-08 00:34 | 43.16221 | 29.98668 | 35116 ft | 510 kts | 134° |
| 2026-05-08 00:34 | 43.11349 | 30.05748 | 35119 ft | 511 kts | 134° |
| 2026-05-08 00:35 | 43.06461 | 30.12834 | 35114 ft | 511 kts | 134° |
| 2026-05-08 00:35 | 43.01573 | 30.19901 | 35117 ft | 512 kts | 134° |
| 2026-05-08 00:36 | 42.96682 | 30.26956 | 35120 ft | 512 kts | 134° |
| 2026-05-08 00:36 | 42.91767 | 30.34029 | 35116 ft | 513 kts | 134° |
| 2026-05-08 00:37 | 42.86883 | 30.41039 | 35119 ft | 513 kts | 134° |
| 2026-05-08 00:38 | 42.79493 | 30.51613 | 35120 ft | 514 kts | 134° |
| 2026-05-08 00:38 | 42.75188 | 30.59345 | 35123 ft | 513 kts | 117° |
| 2026-05-08 00:38 | 42.73784 | 30.63785 | 35122 ft | 510 kts | 106° |
| 2026-05-08 00:39 | 42.72963 | 30.68468 | 35126 ft | 508 kts | 98° |
| 2026-05-08 00:39 | 42.71921 | 30.77925 | 35121 ft | 509 kts | 95° |
| 2026-05-08 00:40 | 42.71018 | 30.87478 | 35125 ft | 509 kts | 95° |
| 2026-05-08 00:40 | 42.70080 | 30.97027 | 35123 ft | 509 kts | 95° |
| 2026-05-08 00:41 | 42.69099 | 31.06557 | 35124 ft | 509 kts | 95° |
| 2026-05-08 00:41 | 42.68099 | 31.16084 | 35128 ft | 509 kts | 95° |
| 2026-05-08 00:42 | 42.67089 | 31.25617 | 35124 ft | 509 kts | 95° |
| 2026-05-08 00:42 | 42.66080 | 31.35086 | 35126 ft | 509 kts | 95° |
| 2026-05-08 00:43 | 42.65059 | 31.44594 | 35128 ft | 508 kts | 95° |
| 2026-05-08 00:43 | 42.64031 | 31.54100 | 35127 ft | 508 kts | 95° |
| 2026-05-08 00:44 | 42.62997 | 31.63591 | 35129 ft | 508 kts | 95° |
| 2026-05-08 00:44 | 42.61954 | 31.73077 | 35130 ft | 507 kts | 95° |
| 2026-05-08 00:45 | 42.60906 | 31.82541 | 35128 ft | 507 kts | 95° |
| 2026-05-08 00:45 | 42.59850 | 31.91998 | 35125 ft | 507 kts | 95° |
| 2026-05-08 00:46 | 42.58787 | 32.01449 | 35125 ft | 506 kts | 95° |
| 2026-05-08 00:46 | 42.57741 | 32.10904 | 35128 ft | 506 kts | 95° |
| 2026-05-08 00:47 | 42.56664 | 32.20341 | 35126 ft | 506 kts | 95° |
| 2026-05-08 00:47 | 42.55572 | 32.29760 | 35125 ft | 506 kts | 95° |
| 2026-05-08 00:48 | 42.54483 | 32.39120 | 35127 ft | 505 kts | 95° |
| 2026-05-08 00:48 | 42.53383 | 32.48536 | 35117 ft | 505 kts | 95° |
| 2026-05-08 00:49 | 42.52277 | 32.57941 | 35119 ft | 505 kts | 95° |
| 2026-05-08 00:49 | 42.51163 | 32.67339 | 35116 ft | 505 kts | 96° |
| 2026-05-08 00:50 | 42.50043 | 32.76730 | 35125 ft | 504 kts | 96° |
| 2026-05-08 00:50 | 42.48915 | 32.86105 | 35126 ft | 504 kts | 96° |
| 2026-05-08 00:51 | 42.47782 | 32.95467 | 35117 ft | 503 kts | 96° |
| 2026-05-08 00:51 | 42.46648 | 33.04767 | 35126 ft | 503 kts | 96° |
| 2026-05-08 00:52 | 42.45501 | 33.14105 | 35122 ft | 503 kts | 96° |
| 2026-05-08 00:52 | 42.44351 | 33.23437 | 35120 ft | 502 kts | 96° |
| 2026-05-08 00:53 | 42.43186 | 33.32759 | 35125 ft | 502 kts | 96° |
| 2026-05-08 00:53 | 42.42211 | 33.40507 | 35127 ft | 502 kts | 96° |
| 2026-05-08 00:54 | 42.41041 | 33.49819 | 35121 ft | 502 kts | 96° |
| 2026-05-08 00:54 | 42.39857 | 33.59127 | 35127 ft | 502 kts | 96° |
| 2026-05-08 00:55 | 42.38665 | 33.68434 | 35129 ft | 502 kts | 96° |
| 2026-05-08 00:55 | 42.37467 | 33.77737 | 35129 ft | 502 kts | 96° |
| 2026-05-08 00:56 | 42.36265 | 33.87020 | 35124 ft | 501 kts | 96° |
| 2026-05-08 00:56 | 42.35064 | 33.96251 | 35123 ft | 501 kts | 96° |
| 2026-05-08 00:57 | 42.33851 | 34.05530 | 35125 ft | 501 kts | 96° |
| 2026-05-08 00:57 | 42.32630 | 34.14808 | 35126 ft | 501 kts | 96° |
| 2026-05-08 00:58 | 42.31405 | 34.24056 | 35125 ft | 500 kts | 97° |
| 2026-05-08 00:58 | 42.30171 | 34.33308 | 35131 ft | 500 kts | 97° |
| 2026-05-08 00:59 | 42.28935 | 34.42542 | 35131 ft | 499 kts | 97° |
| 2026-05-08 00:59 | 42.27690 | 34.51764 | 35128 ft | 499 kts | 97° |
| 2026-05-08 01:00 | 42.26433 | 34.60979 | 35124 ft | 499 kts | 97° |
| 2026-05-08 01:00 | 42.25170 | 34.70182 | 35131 ft | 498 kts | 97° |
| 2026-05-08 01:01 | 42.23911 | 34.79316 | 35131 ft | 498 kts | 97° |
| 2026-05-08 01:01 | 42.22646 | 34.88490 | 35142 ft | 497 kts | 97° |
| 2026-05-08 01:02 | 42.21359 | 34.97658 | 35140 ft | 497 kts | 98° |
| 2026-05-08 01:02 | 42.20067 | 35.06811 | 35139 ft | 496 kts | 98° |
| 2026-05-08 01:03 | 42.18782 | 35.15877 | 35145 ft | 495 kts | 98° |
| 2026-05-08 01:03 | 42.17485 | 35.24979 | 35148 ft | 494 kts | 98° |
| 2026-05-08 01:04 | 42.16185 | 35.34056 | 35151 ft | 493 kts | 98° |
| 2026-05-08 01:04 | 42.14880 | 35.43125 | 35150 ft | 492 kts | 98° |
| 2026-05-08 01:05 | 42.13576 | 35.52179 | 35152 ft | 492 kts | 98° |
| 2026-05-08 01:05 | 42.12259 | 35.61214 | 35153 ft | 491 kts | 98° |
| 2026-05-08 01:06 | 42.10936 | 35.70242 | 35156 ft | 491 kts | 98° |
| 2026-05-08 01:06 | 42.09611 | 35.79244 | 35154 ft | 490 kts | 98° |
| 2026-05-08 01:07 | 42.08281 | 35.88238 | 35152 ft | 490 kts | 99° |
| 2026-05-08 01:07 | 42.06952 | 35.97170 | 35162 ft | 489 kts | 99° |
| 2026-05-08 01:08 | 42.05608 | 36.06151 | 35164 ft | 489 kts | 99° |
| 2026-05-08 01:08 | 42.04259 | 36.15122 | 35167 ft | 489 kts | 99° |
| 2026-05-08 01:09 | 42.02901 | 36.24096 | 35168 ft | 489 kts | 99° |
| 2026-05-08 01:09 | 42.01538 | 36.33050 | 35169 ft | 488 kts | 99° |
| 2026-05-08 01:10 | 42.00171 | 36.41988 | 35172 ft | 488 kts | 99° |
| 2026-05-08 01:10 | 41.98796 | 36.50925 | 35172 ft | 488 kts | 99° |
| 2026-05-08 01:11 | 41.97416 | 36.59847 | 35174 ft | 488 kts | 99° |
| 2026-05-08 01:11 | 41.96025 | 36.68788 | 35177 ft | 487 kts | 99° |
| 2026-05-08 01:12 | 41.94633 | 36.77691 | 35175 ft | 487 kts | 99° |
| 2026-05-08 01:12 | 41.93241 | 36.86546 | 35177 ft | 487 kts | 99° |
| 2026-05-08 01:13 | 41.91833 | 36.95454 | 35176 ft | 487 kts | 99° |
| 2026-05-08 01:13 | 41.90563 | 37.04361 | 35178 ft | 485 kts | 93° |
| 2026-05-08 01:14 | 41.90239 | 37.13385 | 35179 ft | 483 kts | 89° |
| 2026-05-08 01:14 | 41.90106 | 37.22394 | 35179 ft | 483 kts | 88° |
| 2026-05-08 01:15 | 41.89993 | 37.31403 | 35180 ft | 483 kts | 89° |
| 2026-05-08 01:15 | 41.89860 | 37.40404 | 35184 ft | 482 kts | 89° |
| 2026-05-08 01:16 | 41.89710 | 37.49401 | 35181 ft | 482 kts | 89° |
| 2026-05-08 01:16 | 41.89551 | 37.58394 | 35182 ft | 482 kts | 89° |
| 2026-05-08 01:17 | 41.89385 | 37.67383 | 35188 ft | 481 kts | 89° |
| 2026-05-08 01:17 | 41.89213 | 37.76356 | 35193 ft | 481 kts | 89° |
| 2026-05-08 01:18 | 41.89034 | 37.85328 | 35186 ft | 481 kts | 89° |
| 2026-05-08 01:18 | 41.88848 | 37.94297 | 35190 ft | 480 kts | 89° |
| 2026-05-08 01:19 | 41.88656 | 38.03201 | 35184 ft | 480 kts | 89° |
| 2026-05-08 01:19 | 41.88457 | 38.12155 | 35183 ft | 480 kts | 89° |
| 2026-05-08 01:20 | 41.88250 | 38.21124 | 35193 ft | 480 kts | 89° |
| 2026-05-08 01:20 | 41.88037 | 38.30068 | 35184 ft | 479 kts | 89° |
| 2026-05-08 01:21 | 41.87817 | 38.39014 | 35199 ft | 479 kts | 89° |
| 2026-05-08 01:21 | 41.87589 | 38.47965 | 35194 ft | 480 kts | 90° |
| 2026-05-08 01:22 | 41.87357 | 38.56849 | 35190 ft | 480 kts | 90° |
| 2026-05-08 01:22 | 41.87116 | 38.65792 | 35191 ft | 479 kts | 90° |
| 2026-05-08 01:23 | 41.86868 | 38.74723 | 35193 ft | 479 kts | 90° |
| 2026-05-08 01:23 | 41.86613 | 38.83670 | 35191 ft | 479 kts | 90° |
| 2026-05-08 01:24 | 41.86351 | 38.92605 | 35194 ft | 479 kts | 90° |
| 2026-05-08 01:24 | 41.86083 | 39.01531 | 35196 ft | 479 kts | 90° |
| 2026-05-08 01:25 | 41.85809 | 39.10441 | 35198 ft | 479 kts | 90° |
| 2026-05-08 01:25 | 41.85527 | 39.19352 | 35196 ft | 479 kts | 90° |
| 2026-05-08 01:26 | 41.85239 | 39.28244 | 35195 ft | 479 kts | 90° |
| 2026-05-08 01:26 | 41.84944 | 39.37164 | 35195 ft | 478 kts | 90° |
| 2026-05-08 01:27 | 41.84641 | 39.46085 | 35193 ft | 478 kts | 90° |
| 2026-05-08 01:27 | 41.84332 | 39.55002 | 35198 ft | 478 kts | 90° |
| 2026-05-08 01:28 | 41.84017 | 39.63914 | 35197 ft | 478 kts | 90° |
| 2026-05-08 01:28 | 41.83694 | 39.72816 | 35196 ft | 478 kts | 91° |
| 2026-05-08 01:29 | 41.83365 | 39.81725 | 35196 ft | 479 kts | 91° |
| 2026-05-08 01:29 | 41.83029 | 39.90644 | 35198 ft | 479 kts | 91° |
| 2026-05-08 01:30 | 41.82686 | 39.99572 | 35197 ft | 479 kts | 91° |
| 2026-05-08 01:30 | 41.82339 | 40.08432 | 35198 ft | 479 kts | 91° |
| 2026-05-08 01:31 | 41.81983 | 40.17357 | 35202 ft | 480 kts | 91° |
| 2026-05-08 01:31 | 41.81617 | 40.26291 | 35201 ft | 480 kts | 91° |
| 2026-05-08 01:32 | 41.81242 | 40.35250 | 35200 ft | 481 kts | 91° |
| 2026-05-08 01:32 | 41.80861 | 40.44196 | 35199 ft | 481 kts | 91° |
| 2026-05-08 01:33 | 41.80474 | 40.53144 | 35200 ft | 481 kts | 92° |
| 2026-05-08 01:33 | 41.80080 | 40.62091 | 35198 ft | 482 kts | 92° |
| 2026-05-08 01:34 | 41.79676 | 40.71071 | 35197 ft | 482 kts | 92° |
| 2026-05-08 01:34 | 41.79236 | 40.80038 | 35195 ft | 482 kts | 92° |
| 2026-05-08 01:35 | 41.78784 | 40.89003 | 35193 ft | 482 kts | 92° |
| 2026-05-08 01:35 | 41.78330 | 40.97974 | 35189 ft | 483 kts | 92° |
| 2026-05-08 01:36 | 41.77871 | 41.06949 | 35191 ft | 483 kts | 92° |
| 2026-05-08 01:36 | 41.77407 | 41.15929 | 35184 ft | 483 kts | 92° |
| 2026-05-08 01:37 | 41.76937 | 41.24872 | 35183 ft | 484 kts | 93° |
| 2026-05-08 01:37 | 41.76458 | 41.33847 | 35181 ft | 484 kts | 93° |
| 2026-05-08 01:38 | 41.75969 | 41.42859 | 35184 ft | 484 kts | 93° |
| 2026-05-08 01:38 | 41.75475 | 41.51855 | 35182 ft | 484 kts | 93° |
| 2026-05-08 01:39 | 41.74974 | 41.60852 | 35184 ft | 484 kts | 93° |
| 2026-05-08 01:39 | 41.74469 | 41.69776 | 35182 ft | 485 kts | 93° |
| 2026-05-08 01:40 | 41.73952 | 41.78792 | 35186 ft | 485 kts | 93° |
| 2026-05-08 01:40 | 41.73429 | 41.87802 | 35184 ft | 485 kts | 94° |
| 2026-05-08 01:41 | 41.72899 | 41.96819 | 35190 ft | 485 kts | 94° |
| 2026-05-08 01:41 | 41.72454 | 42.04284 | 35198 ft | 486 kts | 94° |
| 2026-05-08 01:42 | 41.71905 | 42.13399 | 35339 ft | 493 kts | 94° |
| 2026-05-08 01:42 | 41.71536 | 42.19473 | 35600 ft | 494 kts | 94° |
| 2026-05-08 01:42 | 41.71348 | 42.22572 | 35748 ft | 495 kts | 94° |
| 2026-05-08 01:42 | 41.71062 | 42.27164 | 35966 ft | 496 kts | 94° |
| 2026-05-08 01:43 | 41.70770 | 42.31777 | 36163 ft | 497 kts | 94° |
| 2026-05-08 01:43 | 41.70482 | 42.36325 | 36366 ft | 497 kts | 95° |
| 2026-05-08 01:43 | 41.70193 | 42.40935 | 36576 ft | 498 kts | 95° |
| 2026-05-08 01:43 | 41.69901 | 42.45555 | 36785 ft | 498 kts | 95° |
| 2026-05-08 01:44 | 41.69605 | 42.50175 | 36981 ft | 499 kts | 95° |
| 2026-05-08 01:44 | 41.69307 | 42.54810 | 37161 ft | 500 kts | 95° |
| 2026-05-08 01:44 | 41.69007 | 42.59446 | 37213 ft | 502 kts | 95° |
| 2026-05-08 01:45 | 41.68402 | 42.68738 | 37218 ft | 501 kts | 95° |
| 2026-05-08 01:45 | 41.67787 | 42.78032 | 37217 ft | 501 kts | 95° |
| 2026-05-08 01:46 | 41.67164 | 42.87321 | 37217 ft | 502 kts | 95° |
| 2026-05-08 01:46 | 41.66536 | 42.96626 | 37218 ft | 502 kts | 95° |
| 2026-05-08 01:47 | 41.65892 | 43.05928 | 37222 ft | 502 kts | 96° |
| 2026-05-08 01:47 | 41.65242 | 43.15232 | 37224 ft | 502 kts | 96° |
| 2026-05-08 01:48 | 41.64258 | 43.29145 | 37225 ft | 503 kts | 96° |
| 2026-05-08 01:48 | 41.63589 | 43.38466 | 37225 ft | 503 kts | 96° |
| 2026-05-08 01:49 | 41.62914 | 43.47779 | 37224 ft | 504 kts | 96° |
| 2026-05-08 01:49 | 41.62237 | 43.57094 | 37223 ft | 504 kts | 96° |
| 2026-05-08 01:50 | 41.61548 | 43.66426 | 37220 ft | 505 kts | 96° |
| 2026-05-08 01:50 | 41.60850 | 43.75765 | 37216 ft | 505 kts | 96° |
| 2026-05-08 01:51 | 41.60145 | 43.85101 | 37212 ft | 505 kts | 97° |
| 2026-05-08 01:51 | 41.59439 | 43.94451 | 37208 ft | 506 kts | 97° |
| 2026-05-08 01:52 | 41.58717 | 44.03809 | 37206 ft | 506 kts | 97° |
| 2026-05-08 01:52 | 41.57985 | 44.13170 | 37208 ft | 507 kts | 97° |
| 2026-05-08 01:53 | 41.57120 | 44.22469 | 37205 ft | 507 kts | 103° |
| 2026-05-08 01:53 | 41.55183 | 44.31481 | 37209 ft | 505 kts | 109° |
| 2026-05-08 01:54 | 41.52984 | 44.40393 | 37205 ft | 506 kts | 110° |
| 2026-05-08 01:54 | 41.50744 | 44.49292 | 37205 ft | 506 kts | 110° |
| 2026-05-08 01:55 | 41.48507 | 44.58209 | 37200 ft | 507 kts | 110° |
| 2026-05-08 01:55 | 41.46275 | 44.67125 | 37192 ft | 507 kts | 110° |
| 2026-05-08 01:56 | 41.44039 | 44.76040 | 37192 ft | 507 kts | 111° |
| 2026-05-08 01:56 | 41.41793 | 44.84958 | 37192 ft | 507 kts | 111° |
| 2026-05-08 01:57 | 41.39538 | 44.93876 | 37183 ft | 508 kts | 111° |
| 2026-05-08 01:57 | 41.37278 | 45.02777 | 37178 ft | 508 kts | 111° |
| 2026-05-08 01:58 | 41.35026 | 45.11630 | 37179 ft | 508 kts | 111° |
| 2026-05-08 01:58 | 41.32751 | 45.20532 | 37169 ft | 508 kts | 111° |
| 2026-05-08 01:59 | 41.30460 | 45.29430 | 37177 ft | 508 kts | 112° |
| 2026-05-08 01:59 | 41.28162 | 45.38332 | 37164 ft | 509 kts | 112° |
| 2026-05-08 02:00 | 41.25859 | 45.47225 | 37169 ft | 509 kts | 112° |
| 2026-05-08 02:00 | 41.23552 | 45.56108 | 37167 ft | 509 kts | 112° |
| 2026-05-08 02:01 | 41.21230 | 45.65015 | 37171 ft | 509 kts | 112° |
| 2026-05-08 02:01 | 41.18904 | 45.73888 | 37168 ft | 509 kts | 112° |
| 2026-05-08 02:02 | 41.16561 | 45.82766 | 37166 ft | 510 kts | 113° |
| 2026-05-08 02:02 | 41.14207 | 45.91651 | 37165 ft | 510 kts | 113° |
| 2026-05-08 02:03 | 41.11849 | 46.00527 | 37170 ft | 510 kts | 113° |
| 2026-05-08 02:03 | 41.09487 | 46.09391 | 37167 ft | 510 kts | 113° |
| 2026-05-08 02:04 | 41.07113 | 46.18264 | 37170 ft | 510 kts | 114° |
| 2026-05-08 02:04 | 41.04755 | 46.27054 | 37173 ft | 510 kts | 114° |
| 2026-05-08 02:05 | 41.02381 | 46.35916 | 37171 ft | 510 kts | 114° |
| 2026-05-08 02:05 | 41.00015 | 46.44777 | 37170 ft | 510 kts | 114° |
| 2026-05-08 02:06 | 40.97644 | 46.53624 | 37171 ft | 510 kts | 114° |
| 2026-05-08 02:06 | 40.95261 | 46.62478 | 37168 ft | 511 kts | 114° |
| 2026-05-08 02:07 | 40.92870 | 46.71325 | 37168 ft | 511 kts | 115° |
| 2026-05-08 02:07 | 40.91018 | 46.80445 | 37166 ft | 520 kts | 101° |
| 2026-05-08 02:08 | 40.90879 | 46.85255 | 37169 ft | 527 kts | 90° |
| 2026-05-08 02:08 | 40.91361 | 46.90019 | 37174 ft | 531 kts | 81° |
| 2026-05-08 02:08 | 40.93030 | 46.99567 | 37168 ft | 534 kts | 78° |
| 2026-05-08 02:09 | 40.94867 | 47.09105 | 37170 ft | 535 kts | 78° |
| 2026-05-08 02:09 | 40.96674 | 47.18665 | 37171 ft | 535 kts | 79° |
| 2026-05-08 02:10 | 40.98435 | 47.28231 | 37175 ft | 535 kts | 79° |
| 2026-05-08 02:10 | 41.00173 | 47.37806 | 37183 ft | 535 kts | 79° |
| 2026-05-08 02:11 | 41.01905 | 47.47384 | 37175 ft | 535 kts | 79° |
| 2026-05-08 02:11 | 41.03623 | 47.56919 | 37168 ft | 535 kts | 79° |
| 2026-05-08 02:12 | 41.05346 | 47.66534 | 37167 ft | 535 kts | 79° |
| 2026-05-08 02:12 | 41.07056 | 47.76124 | 37159 ft | 535 kts | 80° |
| 2026-05-08 02:13 | 41.08761 | 47.85732 | 37165 ft | 535 kts | 80° |
| 2026-05-08 02:13 | 41.10447 | 47.95257 | 37168 ft | 534 kts | 79° |
| 2026-05-08 02:14 | 41.12766 | 48.04659 | 37170 ft | 538 kts | 73° |
| 2026-05-08 02:14 | 41.15341 | 48.13975 | 37167 ft | 537 kts | 72° |
| 2026-05-08 02:15 | 41.17950 | 48.23293 | 37175 ft | 538 kts | 72° |
| 2026-05-08 02:15 | 41.20538 | 48.32621 | 37177 ft | 539 kts | 72° |
| 2026-05-08 02:16 | 41.23115 | 48.41972 | 37167 ft | 539 kts | 72° |
| 2026-05-08 02:16 | 41.25686 | 48.51343 | 37166 ft | 540 kts | 72° |
| 2026-05-08 02:17 | 41.28250 | 48.60725 | 37160 ft | 540 kts | 72° |
| 2026-05-08 02:17 | 41.30804 | 48.70107 | 37152 ft | 540 kts | 72° |
| 2026-05-08 02:18 | 41.33341 | 48.79460 | 37143 ft | 540 kts | 73° |
| 2026-05-08 02:18 | 41.35884 | 48.88872 | 37135 ft | 541 kts | 73° |
| 2026-05-08 02:19 | 41.38423 | 48.98304 | 37134 ft | 541 kts | 73° |
| 2026-05-08 02:19 | 41.40956 | 49.07755 | 37128 ft | 541 kts | 73° |
| 2026-05-08 02:20 | 41.43478 | 49.17204 | 37126 ft | 541 kts | 73° |
| 2026-05-08 02:20 | 41.45997 | 49.26677 | 37129 ft | 542 kts | 73° |
| 2026-05-08 02:21 | 41.48506 | 49.36147 | 37127 ft | 542 kts | 73° |
| 2026-05-08 02:21 | 41.51012 | 49.45643 | 37124 ft | 542 kts | 73° |
| 2026-05-08 02:22 | 41.53507 | 49.55132 | 37125 ft | 542 kts | 73° |
| 2026-05-08 02:22 | 41.55996 | 49.64636 | 37124 ft | 542 kts | 73° |
| 2026-05-08 02:23 | 41.58458 | 49.74074 | 37128 ft | 542 kts | 73° |
| 2026-05-08 02:23 | 41.60937 | 49.83615 | 37126 ft | 542 kts | 73° |
| 2026-05-08 02:24 | 41.63402 | 49.93142 | 37123 ft | 543 kts | 73° |
| 2026-05-08 02:24 | 41.65863 | 50.02687 | 37123 ft | 543 kts | 73° |
| 2026-05-08 02:25 | 41.68315 | 50.12238 | 37124 ft | 543 kts | 73° |
| 2026-05-08 02:25 | 41.70761 | 50.21802 | 37123 ft | 543 kts | 73° |
| 2026-05-08 02:26 | 41.73195 | 50.31358 | 37116 ft | 543 kts | 73° |
| 2026-05-08 02:26 | 41.75609 | 50.40875 | 37121 ft | 543 kts | 73° |
| 2026-05-08 02:27 | 41.78033 | 50.50469 | 37121 ft | 543 kts | 73° |
| 2026-05-08 02:27 | 41.80450 | 50.60073 | 37117 ft | 543 kts | 74° |
| 2026-05-08 02:28 | 41.82857 | 50.69677 | 37118 ft | 543 kts | 74° |
| 2026-05-08 02:28 | 41.85254 | 50.79279 | 37115 ft | 543 kts | 74° |
| 2026-05-08 02:29 | 41.87645 | 50.88899 | 37116 ft | 543 kts | 74° |
| 2026-05-08 02:29 | 41.90011 | 50.98455 | 37114 ft | 543 kts | 74° |
| 2026-05-08 02:30 | 41.92386 | 51.08091 | 37113 ft | 543 kts | 74° |
| 2026-05-08 02:30 | 41.94372 | 51.16177 | 37129 ft | 543 kts | 74° |
| 2026-05-08 02:31 | 41.96718 | 51.25762 | 37109 ft | 544 kts | 74° |
| 2026-05-08 02:31 | 41.99068 | 51.35408 | 37106 ft | 544 kts | 74° |
| 2026-05-08 02:32 | 42.01564 | 51.45007 | 37119 ft | 546 kts | 67° |
| 2026-05-08 02:32 | 42.05361 | 51.53861 | 37108 ft | 547 kts | 58° |
| 2026-05-08 02:33 | 42.09513 | 51.62459 | 37115 ft | 548 kts | 57° |
| 2026-05-08 02:33 | 42.13708 | 51.71037 | 37107 ft | 548 kts | 57° |
| 2026-05-08 02:34 | 42.17872 | 51.79626 | 37106 ft | 548 kts | 57° |
| 2026-05-08 02:34 | 42.22022 | 51.88254 | 37108 ft | 547 kts | 58° |
| 2026-05-08 02:35 | 42.26154 | 51.96881 | 37107 ft | 547 kts | 58° |
| 2026-05-08 02:35 | 42.30282 | 52.05526 | 37104 ft | 547 kts | 58° |
| 2026-05-08 02:36 | 42.34405 | 52.14182 | 37102 ft | 547 kts | 58° |
| 2026-05-08 02:36 | 42.38494 | 52.22789 | 37103 ft | 547 kts | 58° |
| 2026-05-08 02:37 | 42.42600 | 52.31458 | 37106 ft | 547 kts | 58° |
| 2026-05-08 02:37 | 42.46703 | 52.40144 | 37102 ft | 547 kts | 58° |
| 2026-05-08 02:38 | 42.50802 | 52.48849 | 37103 ft | 547 kts | 58° |
| 2026-05-08 02:38 | 42.54893 | 52.57563 | 37102 ft | 547 kts | 58° |
| 2026-05-08 02:39 | 42.58978 | 52.66287 | 37096 ft | 547 kts | 58° |
| 2026-05-08 02:39 | 42.63055 | 52.75021 | 37102 ft | 548 kts | 58° |
| 2026-05-08 02:40 | 42.67122 | 52.83760 | 37096 ft | 548 kts | 58° |
| 2026-05-08 02:40 | 42.71187 | 52.92521 | 37093 ft | 548 kts | 58° |
| 2026-05-08 02:41 | 42.75248 | 53.01298 | 37095 ft | 548 kts | 58° |
| 2026-05-08 02:41 | 42.79302 | 53.10085 | 37095 ft | 548 kts | 58° |
| 2026-05-08 02:42 | 42.83321 | 53.18824 | 37093 ft | 548 kts | 58° |
| 2026-05-08 02:42 | 42.87364 | 53.27640 | 37090 ft | 548 kts | 58° |
| 2026-05-08 02:43 | 42.91402 | 53.36472 | 37089 ft | 548 kts | 58° |
| 2026-05-08 02:43 | 42.95429 | 53.45307 | 37089 ft | 548 kts | 58° |
| 2026-05-08 02:44 | 42.99385 | 53.54211 | 37086 ft | 548 kts | 64° |
| 2026-05-08 02:44 | 43.01752 | 53.64002 | 37089 ft | 541 kts | 85° |
| 2026-05-08 02:45 | 43.02631 | 53.74205 | 37086 ft | 540 kts | 88° |
| 2026-05-08 02:45 | 43.03276 | 53.84427 | 37082 ft | 540 kts | 88° |
| 2026-05-08 02:46 | 43.03911 | 53.94649 | 37086 ft | 539 kts | 88° |
| 2026-05-08 02:46 | 43.04570 | 54.04878 | 37084 ft | 539 kts | 88° |
| 2026-05-08 02:47 | 43.05229 | 54.15032 | 37083 ft | 539 kts | 88° |
| 2026-05-08 02:47 | 43.05886 | 54.25254 | 37086 ft | 539 kts | 88° |
| 2026-05-08 02:48 | 43.06533 | 54.35483 | 37088 ft | 540 kts | 88° |
| 2026-05-08 02:48 | 43.07169 | 54.45717 | 37088 ft | 540 kts | 88° |
| 2026-05-08 02:49 | 43.07797 | 54.55971 | 37089 ft | 541 kts | 88° |
| 2026-05-08 02:49 | 43.08417 | 54.66230 | 37088 ft | 541 kts | 88° |
| 2026-05-08 02:50 | 43.09024 | 54.76433 | 37093 ft | 542 kts | 88° |
| 2026-05-08 02:50 | 43.09626 | 54.86711 | 37092 ft | 543 kts | 89° |
| 2026-05-08 02:51 | 43.10220 | 54.97012 | 37093 ft | 543 kts | 89° |
| 2026-05-08 02:51 | 43.10806 | 55.07328 | 37086 ft | 543 kts | 89° |
| 2026-05-08 02:52 | 43.11382 | 55.17638 | 37081 ft | 543 kts | 89° |
| 2026-05-08 02:52 | 43.11948 | 55.27939 | 37092 ft | 543 kts | 89° |
| 2026-05-08 02:53 | 43.12506 | 55.38259 | 37079 ft | 543 kts | 89° |
| 2026-05-08 02:53 | 43.13054 | 55.48575 | 37090 ft | 543 kts | 89° |
| 2026-05-08 02:54 | 43.13592 | 55.58878 | 37087 ft | 543 kts | 89° |
| 2026-05-08 02:54 | 43.14123 | 55.69217 | 37088 ft | 543 kts | 89° |
| 2026-05-08 02:55 | 43.14900 | 55.84708 | 37081 ft | 544 kts | 89° |
| 2026-05-08 02:56 | 43.15404 | 55.94963 | 37083 ft | 544 kts | 89° |
| 2026-05-08 02:56 | 43.16760 | 56.05195 | 37078 ft | 548 kts | 77° |
| 2026-05-08 02:57 | 43.18814 | 56.15258 | 37079 ft | 549 kts | 75° |
| 2026-05-08 02:57 | 43.20962 | 56.25311 | 37080 ft | 549 kts | 75° |
| 2026-05-08 02:58 | 43.23096 | 56.35385 | 37075 ft | 549 kts | 75° |
| 2026-05-08 02:58 | 43.25201 | 56.45458 | 37074 ft | 550 kts | 75° |
| 2026-05-08 02:59 | 43.27290 | 56.55544 | 37073 ft | 550 kts | 75° |
| 2026-05-08 02:59 | 43.29373 | 56.65651 | 37071 ft | 550 kts | 76° |
| 2026-05-08 03:00 | 43.31434 | 56.75701 | 37073 ft | 550 kts | 76° |
| 2026-05-08 03:00 | 43.33497 | 56.85806 | 37070 ft | 550 kts | 76° |
| 2026-05-08 03:01 | 43.35554 | 56.95929 | 37066 ft | 550 kts | 76° |
| 2026-05-08 03:01 | 43.37601 | 57.06058 | 37069 ft | 550 kts | 76° |
| 2026-05-08 03:02 | 43.39641 | 57.16199 | 37071 ft | 550 kts | 76° |
| 2026-05-08 03:02 | 43.41670 | 57.26339 | 37066 ft | 550 kts | 76° |
| 2026-05-08 03:03 | 43.43689 | 57.36482 | 37068 ft | 550 kts | 76° |
| 2026-05-08 03:03 | 43.45698 | 57.46627 | 37065 ft | 549 kts | 76° |
| 2026-05-08 03:04 | 43.47699 | 57.56785 | 37063 ft | 549 kts | 76° |
| 2026-05-08 03:04 | 43.49691 | 57.66943 | 37065 ft | 549 kts | 76° |
| 2026-05-08 03:05 | 43.51659 | 57.77039 | 37063 ft | 549 kts | 76° |
| 2026-05-08 03:05 | 43.53633 | 57.87210 | 37062 ft | 549 kts | 76° |
| 2026-05-08 03:06 | 43.55596 | 57.97381 | 37060 ft | 549 kts | 76° |
| 2026-05-08 03:06 | 43.57552 | 58.07571 | 37061 ft | 549 kts | 76° |
| 2026-05-08 03:07 | 43.59498 | 58.17764 | 37055 ft | 549 kts | 76° |
| 2026-05-08 03:07 | 43.61433 | 58.27951 | 37060 ft | 549 kts | 76° |
| 2026-05-08 03:08 | 43.63361 | 58.38150 | 37061 ft | 549 kts | 76° |
| 2026-05-08 03:08 | 43.65253 | 58.48362 | 37058 ft | 548 kts | 77° |
| 2026-05-08 03:09 | 43.67102 | 58.58520 | 37054 ft | 548 kts | 77° |
| 2026-05-08 03:09 | 43.68956 | 58.68732 | 37054 ft | 548 kts | 77° |
| 2026-05-08 03:10 | 43.70806 | 58.78950 | 37055 ft | 548 kts | 77° |
| 2026-05-08 03:10 | 43.72650 | 58.89178 | 37052 ft | 548 kts | 77° |
| 2026-05-08 03:11 | 43.74481 | 58.99398 | 37049 ft | 547 kts | 77° |
| 2026-05-08 03:11 | 43.76317 | 59.09613 | 37050 ft | 547 kts | 77° |
| 2026-05-08 03:12 | 43.78187 | 59.19822 | 37048 ft | 547 kts | 77° |
| 2026-05-08 03:12 | 43.80051 | 59.30031 | 37050 ft | 547 kts | 77° |
| 2026-05-08 03:13 | 43.81899 | 59.40240 | 37047 ft | 546 kts | 77° |
| 2026-05-08 03:13 | 43.83722 | 59.50384 | 37049 ft | 546 kts | 77° |
| 2026-05-08 03:14 | 43.85548 | 59.60606 | 37043 ft | 546 kts | 77° |
| 2026-05-08 03:14 | 43.87365 | 59.70837 | 37041 ft | 546 kts | 77° |
| 2026-05-08 03:15 | 43.89151 | 59.81084 | 37049 ft | 546 kts | 78° |
| 2026-05-08 03:15 | 43.90888 | 59.91252 | 37044 ft | 546 kts | 78° |
| 2026-05-08 03:16 | 43.92641 | 60.01557 | 37045 ft | 545 kts | 78° |
| 2026-05-08 03:16 | 43.94379 | 60.11798 | 37044 ft | 545 kts | 78° |
| 2026-05-08 03:17 | 43.96109 | 60.22039 | 37043 ft | 545 kts | 78° |
| 2026-05-08 03:17 | 43.97829 | 60.32282 | 37041 ft | 545 kts | 78° |
| 2026-05-08 03:18 | 43.99525 | 60.42447 | 37042 ft | 544 kts | 78° |
| 2026-05-08 03:18 | 44.00949 | 60.51028 | 37044 ft | 544 kts | 78° |
| 2026-05-08 03:19 | 44.02641 | 60.61277 | 37042 ft | 544 kts | 78° |
| 2026-05-08 03:19 | 44.04322 | 60.71520 | 37047 ft | 544 kts | 78° |
| 2026-05-08 03:20 | 44.05994 | 60.81769 | 37047 ft | 543 kts | 78° |
| 2026-05-08 03:20 | 44.07646 | 60.91965 | 37040 ft | 543 kts | 78° |
| 2026-05-08 03:21 | 44.09298 | 61.02213 | 37039 ft | 543 kts | 78° |
| 2026-05-08 03:21 | 44.10943 | 61.12485 | 37039 ft | 543 kts | 78° |
| 2026-05-08 03:22 | 44.12579 | 61.22767 | 37038 ft | 543 kts | 78° |
| 2026-05-08 03:22 | 44.14052 | 61.33072 | 37035 ft | 542 kts | 86° |
| 2026-05-08 03:23 | 44.14666 | 61.43504 | 37044 ft | 541 kts | 88° |
| 2026-05-08 03:23 | 44.15118 | 61.53957 | 37035 ft | 541 kts | 89° |
| 2026-05-08 03:24 | 44.15540 | 61.64350 | 37037 ft | 541 kts | 89° |
| 2026-05-08 03:24 | 44.15973 | 61.74805 | 37040 ft | 541 kts | 89° |
| 2026-05-08 03:25 | 44.16406 | 61.85264 | 37043 ft | 541 kts | 89° |
| 2026-05-08 03:25 | 44.16833 | 61.95728 | 37038 ft | 541 kts | 89° |
| 2026-05-08 03:26 | 44.17249 | 62.06203 | 37040 ft | 541 kts | 89° |
| 2026-05-08 03:26 | 44.17655 | 62.16673 | 37034 ft | 541 kts | 89° |
| 2026-05-08 03:27 | 44.18051 | 62.27149 | 37030 ft | 541 kts | 89° |
| 2026-05-08 03:27 | 44.18436 | 62.37538 | 37034 ft | 540 kts | 89° |
| 2026-05-08 03:28 | 44.18794 | 62.47992 | 37032 ft | 540 kts | 89° |
| 2026-05-08 03:28 | 44.19138 | 62.58450 | 37033 ft | 540 kts | 89° |
| 2026-05-08 03:29 | 44.19477 | 62.68894 | 37032 ft | 539 kts | 89° |
| 2026-05-08 03:29 | 44.19808 | 62.79326 | 37033 ft | 539 kts | 89° |
| 2026-05-08 03:30 | 44.20287 | 62.94963 | 37032 ft | 538 kts | 89° |
| 2026-05-08 03:31 | 44.20891 | 63.15778 | 37027 ft | 537 kts | 90° |
| 2026-05-08 03:32 | 44.21172 | 63.31380 | 37031 ft | 536 kts | 91° |
| 2026-05-08 03:32 | 44.21258 | 63.41752 | 37021 ft | 536 kts | 91° |
| 2026-05-08 03:33 | 44.21355 | 63.52139 | 37015 ft | 536 kts | 91° |
| 2026-05-08 03:33 | 44.21459 | 63.62459 | 37019 ft | 535 kts | 91° |
| 2026-05-08 03:34 | 44.21558 | 63.72827 | 37008 ft | 535 kts | 91° |
| 2026-05-08 03:34 | 44.21647 | 63.83178 | 37013 ft | 534 kts | 91° |
| 2026-05-08 03:35 | 44.21725 | 63.93542 | 37008 ft | 534 kts | 91° |
| 2026-05-08 03:35 | 44.21794 | 64.03890 | 37007 ft | 533 kts | 91° |
| 2026-05-08 03:36 | 44.21854 | 64.14222 | 37000 ft | 533 kts | 91° |
| 2026-05-08 03:36 | 44.22023 | 64.24472 | 37002 ft | 533 kts | 88° |
| 2026-05-08 03:37 | 44.22577 | 64.35050 | 37002 ft | 533 kts | 87° |
| 2026-05-08 03:37 | 44.23133 | 64.45346 | 36995 ft | 532 kts | 88° |
| 2026-05-08 03:38 | 44.23618 | 64.55633 | 36994 ft | 531 kts | 88° |
| 2026-05-08 03:38 | 44.24063 | 64.65915 | 36991 ft | 531 kts | 88° |
| 2026-05-08 03:39 | 44.24493 | 64.76193 | 36986 ft | 530 kts | 88° |
| 2026-05-08 03:39 | 44.24911 | 64.86388 | 36984 ft | 530 kts | 88° |
| 2026-05-08 03:40 | 44.25297 | 64.96649 | 36982 ft | 530 kts | 89° |
| 2026-05-08 03:40 | 44.25666 | 65.06915 | 36979 ft | 529 kts | 89° |
| 2026-05-08 03:41 | 44.26030 | 65.17163 | 36977 ft | 529 kts | 89° |
| 2026-05-08 03:41 | 44.26388 | 65.27410 | 36974 ft | 529 kts | 89° |
| 2026-05-08 03:42 | 44.26737 | 65.37652 | 36966 ft | 528 kts | 89° |
| 2026-05-08 03:42 | 44.27077 | 65.47892 | 36967 ft | 528 kts | 89° |
| 2026-05-08 03:43 | 44.27407 | 65.58123 | 36958 ft | 528 kts | 89° |
| 2026-05-08 03:43 | 44.27726 | 65.68293 | 36960 ft | 527 kts | 89° |
| 2026-05-08 03:44 | 44.28037 | 65.78507 | 36960 ft | 527 kts | 89° |
| 2026-05-08 03:44 | 44.28340 | 65.88728 | 36955 ft | 527 kts | 89° |
| 2026-05-08 03:45 | 44.28633 | 65.98940 | 36956 ft | 527 kts | 89° |
| 2026-05-08 03:45 | 44.28916 | 66.09151 | 36953 ft | 527 kts | 89° |
| 2026-05-08 03:46 | 44.29191 | 66.19362 | 36954 ft | 526 kts | 89° |
| 2026-05-08 03:46 | 44.29457 | 66.29578 | 36955 ft | 526 kts | 90° |
| 2026-05-08 03:47 | 44.29713 | 66.39789 | 36951 ft | 526 kts | 90° |
| 2026-05-08 03:47 | 44.29922 | 66.49997 | 36951 ft | 526 kts | 91° |
| 2026-05-08 03:48 | 44.29978 | 66.60132 | 36947 ft | 525 kts | 91° |
| 2026-05-08 03:48 | 44.30014 | 66.70342 | 36945 ft | 525 kts | 91° |
| 2026-05-08 03:49 | 44.30065 | 66.80539 | 36942 ft | 525 kts | 91° |
| 2026-05-08 03:49 | 44.30118 | 66.90726 | 36941 ft | 525 kts | 91° |
| 2026-05-08 03:50 | 44.30165 | 67.00926 | 36941 ft | 525 kts | 91° |
| 2026-05-08 03:50 | 44.30203 | 67.11119 | 36948 ft | 525 kts | 91° |
| 2026-05-08 03:51 | 44.30231 | 67.21301 | 36956 ft | 524 kts | 91° |
| 2026-05-08 03:51 | 44.30249 | 67.31479 | 36967 ft | 524 kts | 91° |
| 2026-05-08 03:52 | 44.30258 | 67.41591 | 36968 ft | 524 kts | 91° |
| 2026-05-08 03:52 | 44.30259 | 67.51743 | 36979 ft | 523 kts | 91° |
| 2026-05-08 03:53 | 44.30517 | 67.61889 | 36982 ft | 524 kts | 86° |
| 2026-05-08 03:53 | 44.31184 | 67.72024 | 36989 ft | 523 kts | 85° |
| 2026-05-08 03:54 | 44.31827 | 67.82129 | 36991 ft | 522 kts | 86° |
| 2026-05-08 03:54 | 44.32385 | 67.92254 | 36990 ft | 522 kts | 87° |
| 2026-05-08 03:55 | 44.32901 | 68.02372 | 36991 ft | 522 kts | 87° |
| 2026-05-08 03:55 | 44.33401 | 68.12412 | 36990 ft | 521 kts | 87° |
| 2026-05-08 03:56 | 44.33898 | 68.22513 | 36987 ft | 521 kts | 87° |
| 2026-05-08 03:56 | 44.34389 | 68.32606 | 36987 ft | 521 kts | 87° |
| 2026-05-08 03:57 | 44.34871 | 68.42706 | 36986 ft | 520 kts | 87° |
| 2026-05-08 03:57 | 44.35343 | 68.52796 | 36987 ft | 520 kts | 87° |
| 2026-05-08 03:58 | 44.35805 | 68.62864 | 36990 ft | 519 kts | 87° |
| 2026-05-08 03:58 | 44.36259 | 68.72927 | 36987 ft | 519 kts | 87° |
| 2026-05-08 03:59 | 44.36703 | 68.82989 | 36987 ft | 518 kts | 87° |
| 2026-05-08 03:59 | 44.36926 | 68.93046 | 36993 ft | 517 kts | 94° |
| 2026-05-08 04:00 | 44.36536 | 69.03015 | 36984 ft | 517 kts | 95° |
| 2026-05-08 04:00 | 44.36034 | 69.13104 | 36983 ft | 517 kts | 95° |
| 2026-05-08 04:01 | 44.35523 | 69.23066 | 36985 ft | 517 kts | 95° |
| 2026-05-08 04:01 | 44.35106 | 69.31422 | 36986 ft | 518 kts | 95° |
| 2026-05-08 04:02 | 44.34500 | 69.43155 | 36984 ft | 518 kts | 95° |
| 2026-05-08 04:02 | 44.34061 | 69.51500 | 36983 ft | 518 kts | 95° |
| 2026-05-08 04:03 | 44.33440 | 69.63163 | 36981 ft | 518 kts | 95° |
| 2026-05-08 04:03 | 44.32714 | 69.76581 | 36978 ft | 518 kts | 95° |
| 2026-05-08 04:04 | 44.32162 | 69.86600 | 36977 ft | 517 kts | 95° |
| 2026-05-08 04:04 | 44.31605 | 69.96538 | 36979 ft | 516 kts | 96° |
| 2026-05-08 04:05 | 44.31036 | 70.06532 | 36975 ft | 516 kts | 96° |
| 2026-05-08 04:05 | 44.30459 | 70.16514 | 36974 ft | 515 kts | 96° |
| 2026-05-08 04:06 | 44.29873 | 70.26482 | 36971 ft | 514 kts | 96° |
| 2026-05-08 04:06 | 44.29282 | 70.36447 | 36974 ft | 514 kts | 96° |
| 2026-05-08 04:07 | 44.28679 | 70.46332 | 36968 ft | 514 kts | 96° |
| 2026-05-08 04:07 | 44.28058 | 70.56270 | 36974 ft | 514 kts | 96° |
| 2026-05-08 04:08 | 44.27430 | 70.66219 | 36971 ft | 514 kts | 96° |
| 2026-05-08 04:08 | 44.26796 | 70.76153 | 36971 ft | 514 kts | 96° |
| 2026-05-08 04:09 | 44.26154 | 70.86084 | 36986 ft | 513 kts | 96° |
| 2026-05-08 04:09 | 44.25503 | 70.96007 | 36983 ft | 513 kts | 96° |
| 2026-05-08 04:10 | 44.24846 | 71.05913 | 36975 ft | 513 kts | 96° |
| 2026-05-08 04:10 | 44.24183 | 71.15763 | 36984 ft | 513 kts | 96° |
| 2026-05-08 04:11 | 44.23508 | 71.25659 | 36980 ft | 512 kts | 96° |
| 2026-05-08 04:11 | 44.22825 | 71.35549 | 36983 ft | 512 kts | 96° |
| 2026-05-08 04:12 | 44.22143 | 71.45425 | 36979 ft | 511 kts | 96° |
| 2026-05-08 04:12 | 44.21484 | 71.55243 | 36983 ft | 511 kts | 96° |
| 2026-05-08 04:13 | 44.20817 | 71.65098 | 36969 ft | 510 kts | 96° |
| 2026-05-08 04:13 | 44.20138 | 71.74952 | 36973 ft | 510 kts | 96° |
| 2026-05-08 04:14 | 44.19449 | 71.84791 | 36969 ft | 510 kts | 96° |
| 2026-05-08 04:14 | 44.18751 | 71.94623 | 36979 ft | 510 kts | 96° |
| 2026-05-08 04:15 | 44.18046 | 72.04446 | 36984 ft | 510 kts | 96° |
| 2026-05-08 04:15 | 44.17331 | 72.14271 | 36978 ft | 509 kts | 96° |
| 2026-05-08 04:16 | 44.16610 | 72.24085 | 36984 ft | 509 kts | 96° |
| 2026-05-08 04:16 | 44.15879 | 72.33897 | 36981 ft | 509 kts | 96° |
| 2026-05-08 04:17 | 44.15146 | 72.43636 | 36977 ft | 509 kts | 96° |
| 2026-05-08 04:17 | 44.14399 | 72.53434 | 36985 ft | 508 kts | 96° |
| 2026-05-08 04:18 | 44.13645 | 72.63223 | 36984 ft | 508 kts | 96° |
| 2026-05-08 04:18 | 44.12883 | 72.73002 | 36975 ft | 508 kts | 96° |
| 2026-05-08 04:19 | 44.12113 | 72.82768 | 36983 ft | 508 kts | 96° |
| 2026-05-08 04:19 | 44.11336 | 72.92530 | 36989 ft | 507 kts | 96° |
| 2026-05-08 04:20 | 44.10552 | 73.02292 | 36975 ft | 507 kts | 97° |
| 2026-05-08 04:20 | 44.09748 | 73.12033 | 36984 ft | 507 kts | 97° |
| 2026-05-08 04:21 | 44.08937 | 73.21706 | 36980 ft | 506 kts | 97° |
| 2026-05-08 04:21 | 44.08115 | 73.31438 | 36984 ft | 506 kts | 97° |
| 2026-05-08 04:22 | 44.07288 | 73.41156 | 36987 ft | 505 kts | 97° |
| 2026-05-08 04:22 | 44.06455 | 73.50856 | 36994 ft | 505 kts | 97° |
| 2026-05-08 04:23 | 44.05613 | 73.60551 | 36995 ft | 504 kts | 97° |
| 2026-05-08 04:23 | 44.04766 | 73.70222 | 36997 ft | 504 kts | 97° |
| 2026-05-08 04:24 | 44.03911 | 73.79881 | 36997 ft | 503 kts | 97° |
| 2026-05-08 04:24 | 44.03048 | 73.89534 | 37001 ft | 503 kts | 97° |
| 2026-05-08 04:25 | 44.02178 | 73.99178 | 37008 ft | 503 kts | 97° |
| 2026-05-08 04:25 | 44.01305 | 74.08751 | 37003 ft | 503 kts | 97° |
| 2026-05-08 04:26 | 44.00419 | 74.18379 | 37017 ft | 502 kts | 97° |
| 2026-05-08 04:26 | 43.99526 | 74.27999 | 37010 ft | 503 kts | 97° |
| 2026-05-08 04:27 | 43.98623 | 74.37626 | 37017 ft | 502 kts | 97° |
| 2026-05-08 04:27 | 43.97713 | 74.47249 | 37007 ft | 502 kts | 97° |
| 2026-05-08 04:28 | 43.96821 | 74.56864 | 37015 ft | 502 kts | 96° |
| 2026-05-08 04:28 | 43.95997 | 74.66420 | 37009 ft | 502 kts | 96° |
| 2026-05-08 04:29 | 43.95167 | 74.76040 | 37015 ft | 501 kts | 96° |
| 2026-05-08 04:29 | 43.94319 | 74.85632 | 37012 ft | 501 kts | 96° |
| 2026-05-08 04:30 | 43.93459 | 74.95217 | 36999 ft | 500 kts | 96° |
| 2026-05-08 04:30 | 43.92591 | 75.04785 | 37011 ft | 500 kts | 96° |
| 2026-05-08 04:31 | 43.91717 | 75.14352 | 37000 ft | 499 kts | 97° |
| 2026-05-08 04:31 | 43.90836 | 75.23877 | 37005 ft | 498 kts | 97° |
| 2026-05-08 04:32 | 43.89946 | 75.33404 | 37002 ft | 498 kts | 97° |
| 2026-05-08 04:32 | 43.89057 | 75.42853 | 36998 ft | 497 kts | 97° |
| 2026-05-08 04:33 | 43.88154 | 75.52363 | 36999 ft | 497 kts | 97° |
| 2026-05-08 04:33 | 43.87246 | 75.61849 | 36993 ft | 497 kts | 97° |
| 2026-05-08 04:34 | 43.86328 | 75.71346 | 36998 ft | 497 kts | 97° |
| 2026-05-08 04:34 | 43.85404 | 75.80824 | 36989 ft | 497 kts | 97° |
| 2026-05-08 04:35 | 43.84473 | 75.90294 | 36995 ft | 496 kts | 97° |
| 2026-05-08 04:35 | 43.83532 | 75.99777 | 36985 ft | 496 kts | 97° |
| 2026-05-08 04:36 | 43.82514 | 76.09164 | 36994 ft | 496 kts | 98° |
| 2026-05-08 04:36 | 43.81370 | 76.18587 | 36981 ft | 496 kts | 98° |
| 2026-05-08 04:37 | 43.80224 | 76.27997 | 36989 ft | 495 kts | 98° |
| 2026-05-08 04:37 | 43.79093 | 76.37405 | 36997 ft | 495 kts | 98° |
| 2026-05-08 04:38 | 43.77963 | 76.46805 | 36998 ft | 495 kts | 98° |
| 2026-05-08 04:38 | 43.76827 | 76.56190 | 36979 ft | 495 kts | 98° |
| 2026-05-08 04:39 | 43.75683 | 76.65575 | 36981 ft | 494 kts | 98° |
| 2026-05-08 04:39 | 43.74532 | 76.74946 | 36986 ft | 494 kts | 98° |
| 2026-05-08 04:40 | 43.73373 | 76.84309 | 36990 ft | 493 kts | 98° |
| 2026-05-08 04:40 | 43.72209 | 76.93653 | 36996 ft | 493 kts | 98° |
| 2026-05-08 04:41 | 43.71044 | 77.02937 | 37005 ft | 493 kts | 97° |
| 2026-05-08 04:41 | 43.69869 | 77.12240 | 37010 ft | 492 kts | 97° |
| 2026-05-08 04:42 | 43.68684 | 77.21573 | 37008 ft | 492 kts | 97° |
| 2026-05-08 04:42 | 43.67492 | 77.30868 | 37011 ft | 492 kts | 98° |
| 2026-05-08 04:43 | 43.66283 | 77.40163 | 37012 ft | 491 kts | 98° |
| 2026-05-08 04:43 | 43.65069 | 77.49453 | 37013 ft | 491 kts | 98° |
| 2026-05-08 04:44 | 43.63852 | 77.58721 | 37018 ft | 490 kts | 97° |
| 2026-05-08 04:44 | 43.62631 | 77.67968 | 37023 ft | 490 kts | 98° |
| 2026-05-08 04:45 | 43.61401 | 77.77220 | 37019 ft | 489 kts | 98° |
| 2026-05-08 04:45 | 43.60173 | 77.86394 | 37030 ft | 489 kts | 98° |
| 2026-05-08 04:46 | 43.58930 | 77.95618 | 37031 ft | 488 kts | 98° |
| 2026-05-08 04:46 | 43.57716 | 78.04836 | 36998 ft | 490 kts | 95° |
| 2026-05-08 04:47 | 43.57444 | 78.09518 | 37150 ft | 490 kts | 90° |
| 2026-05-08 04:47 | 43.57310 | 78.14201 | 37448 ft | 489 kts | 89° |
| 2026-05-08 04:47 | 43.57213 | 78.18885 | 37719 ft | 488 kts | 89° |
| 2026-05-08 04:47 | 43.57133 | 78.23568 | 38003 ft | 488 kts | 88° |
| 2026-05-08 04:48 | 43.57058 | 78.28239 | 38295 ft | 487 kts | 88° |
| 2026-05-08 04:48 | 43.56982 | 78.32910 | 38564 ft | 487 kts | 89° |
| 2026-05-08 04:48 | 43.56901 | 78.37579 | 38802 ft | 487 kts | 89° |
| 2026-05-08 04:48 | 43.56817 | 78.42234 | 38970 ft | 487 kts | 89° |
| 2026-05-08 04:49 | 43.56635 | 78.51588 | 39028 ft | 487 kts | 89° |
| 2026-05-08 04:49 | 43.56444 | 78.60850 | 39022 ft | 487 kts | 89° |
| 2026-05-08 04:50 | 43.56245 | 78.70191 | 39021 ft | 486 kts | 89° |
| 2026-05-08 04:50 | 43.56038 | 78.79499 | 39023 ft | 485 kts | 89° |
| 2026-05-08 04:51 | 43.55825 | 78.88798 | 39026 ft | 485 kts | 89° |
| 2026-05-08 04:51 | 43.55604 | 78.98087 | 39027 ft | 485 kts | 89° |
| 2026-05-08 04:52 | 43.55376 | 79.07364 | 39027 ft | 484 kts | 89° |
| 2026-05-08 04:52 | 43.55141 | 79.16635 | 39028 ft | 484 kts | 89° |
| 2026-05-08 04:53 | 43.54899 | 79.25904 | 39033 ft | 483 kts | 90° |
| 2026-05-08 04:53 | 43.54656 | 79.35115 | 39034 ft | 483 kts | 90° |
| 2026-05-08 04:54 | 43.54395 | 79.44369 | 39043 ft | 483 kts | 90° |
| 2026-05-08 04:54 | 43.54172 | 79.52120 | 39045 ft | 483 kts | 90° |
| 2026-05-08 04:55 | 43.53900 | 79.61378 | 39049 ft | 483 kts | 90° |
| 2026-05-08 04:55 | 43.53624 | 79.70563 | 39050 ft | 483 kts | 90° |
| 2026-05-08 04:56 | 43.53338 | 79.79827 | 39058 ft | 484 kts | 90° |
| 2026-05-08 04:56 | 43.53050 | 79.89083 | 39061 ft | 484 kts | 90° |
| 2026-05-08 04:57 | 43.52747 | 79.98340 | 39063 ft | 484 kts | 90° |
| 2026-05-08 04:57 | 43.52436 | 80.07630 | 39068 ft | 484 kts | 91° |
| 2026-05-08 04:58 | 43.52119 | 80.16906 | 39068 ft | 485 kts | 91° |
| 2026-05-08 04:58 | 43.51794 | 80.26207 | 39072 ft | 486 kts | 91° |
| 2026-05-08 04:59 | 43.51462 | 80.35507 | 39076 ft | 487 kts | 91° |
| 2026-05-08 04:59 | 43.51124 | 80.44767 | 39080 ft | 487 kts | 91° |
| 2026-05-08 05:00 | 43.50775 | 80.54101 | 39083 ft | 487 kts | 91° |
| 2026-05-08 05:00 | 43.50419 | 80.63429 | 39082 ft | 488 kts | 91° |
| 2026-05-08 05:01 | 43.50057 | 80.72770 | 39154 ft | 490 kts | 91° |
| 2026-05-08 05:01 | 43.49806 | 80.82148 | 39189 ft | 489 kts | 89° |
| 2026-05-08 05:02 | 43.49722 | 80.91510 | 39189 ft | 489 kts | 89° |
| 2026-05-08 05:02 | 43.49621 | 81.00895 | 39190 ft | 489 kts | 89° |
| 2026-05-08 05:03 | 43.49482 | 81.10211 | 39188 ft | 490 kts | 90° |
| 2026-05-08 05:03 | 43.49321 | 81.19603 | 39184 ft | 491 kts | 90° |
| 2026-05-08 05:04 | 43.49148 | 81.29000 | 39182 ft | 491 kts | 90° |
| 2026-05-08 05:04 | 43.48963 | 81.38396 | 39183 ft | 491 kts | 90° |
| 2026-05-08 05:05 | 43.48782 | 81.47807 | 39185 ft | 491 kts | 90° |
| 2026-05-08 05:05 | 43.48596 | 81.57213 | 39183 ft | 492 kts | 90° |
| 2026-05-08 05:06 | 43.48398 | 81.66630 | 39168 ft | 492 kts | 90° |
| 2026-05-08 05:06 | 43.48192 | 81.75993 | 39169 ft | 492 kts | 90° |
| 2026-05-08 05:07 | 43.47959 | 81.85407 | 39168 ft | 492 kts | 90° |
| 2026-05-08 05:07 | 43.47717 | 81.94817 | 39161 ft | 492 kts | 90° |
| 2026-05-08 05:08 | 43.47471 | 82.04231 | 39157 ft | 492 kts | 90° |
| 2026-05-08 05:08 | 43.47219 | 82.13644 | 39155 ft | 492 kts | 90° |
| 2026-05-08 05:09 | 43.46960 | 82.23045 | 39144 ft | 492 kts | 91° |
| 2026-05-08 05:09 | 43.46692 | 82.32490 | 39151 ft | 492 kts | 91° |
| 2026-05-08 05:10 | 43.46278 | 82.46620 | 39152 ft | 493 kts | 91° |
| 2026-05-08 05:11 | 43.45990 | 82.56049 | 39148 ft | 493 kts | 91° |
| 2026-05-08 05:11 | 43.45693 | 82.65470 | 39153 ft | 493 kts | 91° |
| 2026-05-08 05:12 | 43.45392 | 82.74906 | 39159 ft | 493 kts | 91° |
| 2026-05-08 05:12 | 43.45082 | 82.84336 | 39160 ft | 493 kts | 91° |
| 2026-05-08 05:13 | 43.44763 | 82.93773 | 39173 ft | 494 kts | 91° |
| 2026-05-08 05:13 | 43.44435 | 83.03210 | 39177 ft | 494 kts | 91° |
| 2026-05-08 05:14 | 43.44102 | 83.12637 | 39191 ft | 493 kts | 91° |
| 2026-05-08 05:14 | 43.43764 | 83.22006 | 39194 ft | 493 kts | 91° |
| 2026-05-08 05:15 | 43.43413 | 83.31450 | 39209 ft | 494 kts | 91° |
| 2026-05-08 05:15 | 43.43042 | 83.40868 | 39220 ft | 494 kts | 93° |
| 2026-05-08 05:16 | 43.42298 | 83.50278 | 39232 ft | 495 kts | 96° |
| 2026-05-08 05:16 | 43.41402 | 83.59671 | 39234 ft | 495 kts | 96° |
| 2026-05-08 05:17 | 43.40549 | 83.69066 | 39238 ft | 495 kts | 96° |
| 2026-05-08 05:17 | 43.39740 | 83.78396 | 39254 ft | 495 kts | 96° |
| 2026-05-08 05:18 | 43.38931 | 83.87779 | 39261 ft | 495 kts | 96° |
| 2026-05-08 05:18 | 43.38112 | 83.97177 | 39265 ft | 494 kts | 96° |
| 2026-05-08 05:19 | 43.37282 | 84.06570 | 39269 ft | 494 kts | 96° |
| 2026-05-08 05:19 | 43.36444 | 84.15957 | 39269 ft | 494 kts | 96° |
| 2026-05-08 05:20 | 43.35599 | 84.25338 | 39281 ft | 494 kts | 96° |
| 2026-05-08 05:20 | 43.34747 | 84.34706 | 39289 ft | 494 kts | 96° |
| 2026-05-08 05:21 | 43.33887 | 84.44076 | 39290 ft | 494 kts | 96° |
| 2026-05-08 05:21 | 43.33000 | 84.53367 | 39298 ft | 494 kts | 96° |
| 2026-05-08 05:22 | 43.32100 | 84.62723 | 39302 ft | 494 kts | 96° |
| 2026-05-08 05:22 | 43.31189 | 84.72082 | 39307 ft | 494 kts | 96° |
| 2026-05-08 05:23 | 43.30279 | 84.81430 | 39318 ft | 494 kts | 96° |
| 2026-05-08 05:23 | 43.29368 | 84.90774 | 39318 ft | 493 kts | 96° |
| 2026-05-08 05:24 | 43.28448 | 85.00053 | 39326 ft | 494 kts | 96° |
| 2026-05-08 05:24 | 43.27516 | 85.09392 | 39319 ft | 494 kts | 96° |
| 2026-05-08 05:25 | 43.26580 | 85.18724 | 39330 ft | 494 kts | 97° |
| 2026-05-08 05:25 | 43.25633 | 85.28063 | 39330 ft | 494 kts | 97° |
| 2026-05-08 05:26 | 43.24672 | 85.37398 | 39325 ft | 494 kts | 97° |
| 2026-05-08 05:26 | 43.23702 | 85.46717 | 39323 ft | 494 kts | 97° |
| 2026-05-08 05:27 | 43.22734 | 85.56039 | 39327 ft | 494 kts | 96° |
| 2026-05-08 05:27 | 43.21765 | 85.65369 | 39315 ft | 494 kts | 97° |
| 2026-05-08 05:28 | 43.20783 | 85.74619 | 39319 ft | 493 kts | 97° |
| 2026-05-08 05:28 | 43.19790 | 85.83918 | 39325 ft | 494 kts | 97° |
| 2026-05-08 05:29 | 43.19421 | 85.93271 | 39330 ft | 490 kts | 83° |
| 2026-05-08 05:29 | 43.21064 | 86.02261 | 39329 ft | 486 kts | 64° |
| 2026-05-08 05:30 | 43.24439 | 86.10230 | 39324 ft | 483 kts | 55° |
| 2026-05-08 05:30 | 43.28171 | 86.17906 | 39327 ft | 484 kts | 54° |
| 2026-05-08 05:31 | 43.31937 | 86.25560 | 39317 ft | 484 kts | 53° |
| 2026-05-08 05:31 | 43.35705 | 86.33244 | 39312 ft | 484 kts | 53° |
| 2026-05-08 05:32 | 43.39448 | 86.40938 | 39302 ft | 484 kts | 53° |
| 2026-05-08 05:32 | 43.43182 | 86.48654 | 39287 ft | 484 kts | 53° |
| 2026-05-08 05:33 | 43.46931 | 86.56352 | 39271 ft | 484 kts | 53° |
| 2026-05-08 05:33 | 43.50687 | 86.64068 | 39250 ft | 485 kts | 53° |
| 2026-05-08 05:34 | 43.54406 | 86.71733 | 39235 ft | 484 kts | 53° |
| 2026-05-08 05:34 | 43.58115 | 86.79485 | 39214 ft | 484 kts | 54° |
| 2026-05-08 05:35 | 43.61785 | 86.87275 | 39201 ft | 485 kts | 54° |
| 2026-05-08 05:35 | 43.65459 | 86.95080 | 39192 ft | 484 kts | 54° |
| 2026-05-08 05:36 | 43.69129 | 87.02878 | 39174 ft | 484 kts | 54° |
| 2026-05-08 05:36 | 43.72800 | 87.10692 | 39159 ft | 484 kts | 54° |
| 2026-05-08 05:37 | 43.76455 | 87.18499 | 39151 ft | 484 kts | 54° |
| 2026-05-08 05:37 | 43.80109 | 87.26332 | 39145 ft | 484 kts | 54° |
| 2026-05-08 05:38 | 43.83757 | 87.34173 | 39147 ft | 484 kts | 54° |
| 2026-05-08 05:38 | 43.87393 | 87.42020 | 39150 ft | 484 kts | 54° |
| 2026-05-08 05:39 | 43.91003 | 87.49828 | 39150 ft | 484 kts | 54° |
| 2026-05-08 05:39 | 43.94830 | 87.57487 | 39150 ft | 482 kts | 50° |
| 2026-05-08 05:40 | 43.98970 | 87.64795 | 39141 ft | 481 kts | 49° |
| 2026-05-08 05:40 | 44.03100 | 87.72127 | 39138 ft | 481 kts | 49° |
| 2026-05-08 05:41 | 44.07164 | 87.79524 | 39131 ft | 482 kts | 50° |
| 2026-05-08 05:41 | 44.11210 | 87.86979 | 39131 ft | 482 kts | 50° |
| 2026-05-08 05:42 | 44.15156 | 87.94439 | 39130 ft | 484 kts | 54° |
| 2026-05-08 05:42 | 44.17956 | 88.02972 | 39131 ft | 490 kts | 72° |
| 2026-05-08 05:43 | 44.19523 | 88.12262 | 39128 ft | 492 kts | 75° |
| 2026-05-08 05:43 | 44.20660 | 88.20066 | 39131 ft | 493 kts | 76° |
| 2026-05-08 05:44 | 44.22005 | 88.29444 | 39133 ft | 493 kts | 76° |
| 2026-05-08 05:44 | 44.23369 | 88.38811 | 39130 ft | 493 kts | 76° |
| 2026-05-08 05:45 | 44.24742 | 88.48187 | 39124 ft | 493 kts | 76° |
| 2026-05-08 05:45 | 44.26103 | 88.57509 | 39117 ft | 493 kts | 76° |
| 2026-05-08 05:46 | 44.27464 | 88.66898 | 39101 ft | 494 kts | 76° |
| 2026-05-08 05:46 | 44.28817 | 88.76300 | 39094 ft | 494 kts | 76° |
| 2026-05-08 05:47 | 44.30163 | 88.85712 | 39090 ft | 494 kts | 76° |
| 2026-05-08 05:47 | 44.31501 | 88.95125 | 39084 ft | 494 kts | 76° |
| 2026-05-08 05:48 | 44.32831 | 89.04540 | 39080 ft | 494 kts | 76° |
| 2026-05-08 05:48 | 44.34148 | 89.13922 | 39076 ft | 495 kts | 76° |
| 2026-05-08 05:49 | 44.35464 | 89.23355 | 39072 ft | 495 kts | 76° |
| 2026-05-08 05:49 | 44.36773 | 89.32795 | 39070 ft | 495 kts | 76° |
| 2026-05-08 05:50 | 44.38073 | 89.42238 | 39066 ft | 495 kts | 76° |
| 2026-05-08 05:50 | 44.39369 | 89.51705 | 39061 ft | 495 kts | 76° |
| 2026-05-08 05:51 | 44.40655 | 89.61179 | 39059 ft | 496 kts | 76° |
| 2026-05-08 05:51 | 44.41001 | 89.70845 | 39055 ft | 502 kts | 94° |
| 2026-05-08 05:52 | 44.39467 | 89.80345 | 39055 ft | 506 kts | 104° |
| 2026-05-08 05:52 | 44.37416 | 89.89784 | 39048 ft | 507 kts | 105° |
| 2026-05-08 05:53 | 44.35307 | 89.99192 | 39053 ft | 507 kts | 105° |
| 2026-05-08 05:53 | 44.33220 | 90.08609 | 39052 ft | 507 kts | 105° |
| 2026-05-08 05:54 | 44.31146 | 90.18036 | 39048 ft | 507 kts | 105° |
| 2026-05-08 05:54 | 44.29084 | 90.27392 | 39050 ft | 507 kts | 105° |
| 2026-05-08 05:55 | 44.27000 | 90.36802 | 39057 ft | 508 kts | 105° |
| 2026-05-08 05:55 | 44.24906 | 90.46209 | 39058 ft | 508 kts | 105° |
| 2026-05-08 05:56 | 44.22802 | 90.55620 | 39064 ft | 508 kts | 105° |
| 2026-05-08 05:56 | 44.20691 | 90.65018 | 39063 ft | 508 kts | 105° |
| 2026-05-08 05:57 | 44.18572 | 90.74407 | 39064 ft | 508 kts | 105° |
| 2026-05-08 05:57 | 44.16445 | 90.83795 | 39070 ft | 508 kts | 105° |
| 2026-05-08 05:58 | 44.14324 | 90.93119 | 39075 ft | 508 kts | 105° |
| 2026-05-08 05:58 | 44.12167 | 91.02558 | 39080 ft | 508 kts | 105° |
| 2026-05-08 05:59 | 44.10035 | 91.11878 | 39079 ft | 509 kts | 105° |
| 2026-05-08 05:59 | 44.07875 | 91.21250 | 39085 ft | 509 kts | 106° |
| 2026-05-08 06:00 | 44.05705 | 91.30620 | 39086 ft | 509 kts | 106° |
| 2026-05-08 06:00 | 44.03530 | 91.39981 | 39093 ft | 509 kts | 106° |
| 2026-05-08 06:01 | 44.01345 | 91.49344 | 39100 ft | 509 kts | 106° |
| 2026-05-08 06:01 | 43.99127 | 91.58703 | 39112 ft | 510 kts | 106° |
| 2026-05-08 06:02 | 43.96900 | 91.68044 | 39114 ft | 510 kts | 106° |
| 2026-05-08 06:02 | 43.94667 | 91.77397 | 39122 ft | 510 kts | 106° |
| 2026-05-08 06:03 | 43.92433 | 91.86725 | 39130 ft | 510 kts | 106° |
| 2026-05-08 06:03 | 43.90204 | 91.95998 | 39130 ft | 510 kts | 106° |
| 2026-05-08 06:04 | 43.87952 | 92.05325 | 39135 ft | 510 kts | 106° |
| 2026-05-08 06:04 | 43.85692 | 92.14642 | 39135 ft | 510 kts | 107° |
| 2026-05-08 06:05 | 43.83425 | 92.23951 | 39140 ft | 510 kts | 107° |
| 2026-05-08 06:05 | 43.81154 | 92.33245 | 39134 ft | 510 kts | 107° |
| 2026-05-08 06:06 | 43.78869 | 92.42549 | 39134 ft | 510 kts | 107° |
| 2026-05-08 06:06 | 43.76583 | 92.51828 | 39128 ft | 510 kts | 107° |
| 2026-05-08 06:07 | 43.74284 | 92.61116 | 39129 ft | 510 kts | 107° |
| 2026-05-08 06:07 | 43.71992 | 92.70342 | 39127 ft | 510 kts | 107° |
| 2026-05-08 06:08 | 43.69680 | 92.79610 | 39127 ft | 510 kts | 107° |
| 2026-05-08 06:08 | 43.67358 | 92.88881 | 39133 ft | 510 kts | 107° |
| 2026-05-08 06:09 | 43.65033 | 92.98128 | 39142 ft | 510 kts | 107° |
| 2026-05-08 06:09 | 43.62763 | 93.07406 | 39148 ft | 510 kts | 106° |
| 2026-05-08 06:10 | 43.60563 | 93.16704 | 39152 ft | 510 kts | 105° |
| 2026-05-08 06:10 | 43.58351 | 93.25997 | 39157 ft | 510 kts | 106° |
| 2026-05-08 06:11 | 43.56118 | 93.35279 | 39162 ft | 510 kts | 106° |
| 2026-05-08 06:11 | 43.53872 | 93.44547 | 39161 ft | 510 kts | 106° |
| 2026-05-08 06:12 | 43.51619 | 93.53804 | 39163 ft | 510 kts | 106° |
| 2026-05-08 06:12 | 43.49356 | 93.63063 | 39164 ft | 509 kts | 106° |
| 2026-05-08 06:13 | 43.47090 | 93.72302 | 39165 ft | 509 kts | 106° |
| 2026-05-08 06:13 | 43.44817 | 93.81536 | 39166 ft | 509 kts | 106° |
| 2026-05-08 06:14 | 43.42532 | 93.90778 | 39168 ft | 509 kts | 107° |
| 2026-05-08 06:14 | 43.40245 | 93.99992 | 39168 ft | 509 kts | 107° |
| 2026-05-08 06:15 | 43.37949 | 94.09206 | 39169 ft | 509 kts | 107° |
| 2026-05-08 06:15 | 43.35659 | 94.18356 | 39165 ft | 509 kts | 107° |
| 2026-05-08 06:16 | 43.33350 | 94.27551 | 39165 ft | 509 kts | 107° |
| 2026-05-08 06:16 | 43.31032 | 94.36741 | 39164 ft | 509 kts | 107° |
| 2026-05-08 06:17 | 43.27540 | 94.50520 | 39150 ft | 509 kts | 107° |
| 2026-05-08 06:17 | 43.25200 | 94.59708 | 39140 ft | 510 kts | 107° |
| 2026-05-08 06:18 | 43.22856 | 94.68878 | 39125 ft | 510 kts | 107° |
| 2026-05-08 06:18 | 43.20501 | 94.78054 | 39112 ft | 510 kts | 107° |
| 2026-05-08 06:19 | 43.18142 | 94.87209 | 39100 ft | 509 kts | 108° |
| 2026-05-08 06:19 | 43.15775 | 94.96362 | 39085 ft | 509 kts | 108° |
| 2026-05-08 06:20 | 43.12935 | 95.05229 | 39077 ft | 511 kts | 121° |
| 2026-05-08 06:20 | 43.08339 | 95.12501 | 39066 ft | 510 kts | 142° |
| 2026-05-08 06:21 | 43.02595 | 95.18177 | 39061 ft | 510 kts | 147° |
| 2026-05-08 06:21 | 42.96700 | 95.23560 | 39055 ft | 510 kts | 147° |
| 2026-05-08 06:22 | 42.90800 | 95.28946 | 39046 ft | 510 kts | 147° |
| 2026-05-08 06:22 | 42.84923 | 95.34362 | 39045 ft | 509 kts | 147° |
| 2026-05-08 06:23 | 42.79062 | 95.39783 | 39040 ft | 509 kts | 147° |
| 2026-05-08 06:23 | 42.73203 | 95.45191 | 39034 ft | 508 kts | 147° |
| 2026-05-08 06:24 | 42.67348 | 95.50579 | 39030 ft | 507 kts | 147° |
| 2026-05-08 06:24 | 42.61513 | 95.55934 | 39030 ft | 506 kts | 147° |
| 2026-05-08 06:25 | 42.55672 | 95.61282 | 39029 ft | 506 kts | 147° |
| 2026-05-08 06:25 | 42.49844 | 95.66607 | 39034 ft | 505 kts | 147° |
| 2026-05-08 06:26 | 42.44309 | 95.72458 | 39040 ft | 506 kts | 134° |
| 2026-05-08 06:26 | 42.40300 | 95.80213 | 39045 ft | 504 kts | 114° |
| 2026-05-08 06:27 | 42.39097 | 95.84664 | 39053 ft | 502 kts | 103° |
| 2026-05-08 06:27 | 42.38488 | 95.89295 | 39051 ft | 500 kts | 92° |
| 2026-05-08 06:27 | 42.38127 | 95.98628 | 39054 ft | 500 kts | 89° |
| 2026-05-08 06:28 | 42.37938 | 96.08048 | 39058 ft | 500 kts | 89° |
| 2026-05-08 06:28 | 42.37718 | 96.17451 | 39059 ft | 501 kts | 90° |
| 2026-05-08 06:29 | 42.37451 | 96.26876 | 39062 ft | 501 kts | 90° |
| 2026-05-08 06:29 | 42.37163 | 96.36294 | 39060 ft | 501 kts | 90° |
| 2026-05-08 06:30 | 42.36917 | 96.44121 | 39058 ft | 502 kts | 90° |
| 2026-05-08 06:30 | 42.36615 | 96.53558 | 39053 ft | 502 kts | 90° |
| 2026-05-08 06:31 | 42.36307 | 96.62988 | 39050 ft | 503 kts | 90° |
| 2026-05-08 06:31 | 42.35991 | 96.72439 | 39046 ft | 503 kts | 90° |
| 2026-05-08 06:32 | 42.35667 | 96.81901 | 39044 ft | 504 kts | 90° |
| 2026-05-08 06:32 | 42.35333 | 96.91372 | 39039 ft | 504 kts | 90° |
| 2026-05-08 06:33 | 42.34994 | 97.00784 | 39029 ft | 504 kts | 90° |
| 2026-05-08 06:33 | 42.34644 | 97.10310 | 39023 ft | 504 kts | 90° |
| 2026-05-08 06:34 | 42.34290 | 97.19728 | 39026 ft | 505 kts | 91° |
| 2026-05-08 06:34 | 42.33926 | 97.29209 | 39024 ft | 505 kts | 91° |
| 2026-05-08 06:35 | 42.33553 | 97.38690 | 39007 ft | 505 kts | 91° |
| 2026-05-08 06:35 | 42.33173 | 97.48172 | 39005 ft | 505 kts | 91° |
| 2026-05-08 06:36 | 42.32785 | 97.57647 | 39009 ft | 505 kts | 91° |
| 2026-05-08 06:36 | 42.32392 | 97.67081 | 38996 ft | 505 kts | 91° |
| 2026-05-08 06:37 | 42.31988 | 97.76564 | 38989 ft | 505 kts | 91° |
| 2026-05-08 06:37 | 42.31576 | 97.86047 | 38994 ft | 506 kts | 91° |
| 2026-05-08 06:38 | 42.31156 | 97.95532 | 38987 ft | 506 kts | 91° |
| 2026-05-08 06:38 | 42.30728 | 98.05031 | 38995 ft | 506 kts | 91° |
| 2026-05-08 06:39 | 42.30293 | 98.14529 | 38980 ft | 506 kts | 91° |
| 2026-05-08 06:39 | 42.29849 | 98.24020 | 38983 ft | 506 kts | 91° |
| 2026-05-08 06:40 | 42.29399 | 98.33518 | 38981 ft | 507 kts | 91° |
| 2026-05-08 06:40 | 42.28923 | 98.43020 | 38969 ft | 507 kts | 92° |
| 2026-05-08 06:41 | 42.28426 | 98.52463 | 38976 ft | 507 kts | 92° |
| 2026-05-08 06:41 | 42.27921 | 98.61982 | 38968 ft | 508 kts | 92° |
| 2026-05-08 06:42 | 42.27412 | 98.71495 | 38961 ft | 508 kts | 92° |
| 2026-05-08 06:42 | 42.26897 | 98.81014 | 38957 ft | 509 kts | 92° |
| 2026-05-08 06:43 | 42.26372 | 98.90544 | 38953 ft | 509 kts | 92° |
| 2026-05-08 06:43 | 42.25840 | 99.00078 | 38947 ft | 509 kts | 92° |
| 2026-05-08 06:44 | 42.25299 | 99.09618 | 38947 ft | 510 kts | 92° |
| 2026-05-08 06:44 | 42.24753 | 99.19102 | 38939 ft | 510 kts | 92° |
| 2026-05-08 06:45 | 42.24195 | 99.28647 | 38936 ft | 510 kts | 93° |
| 2026-05-08 06:45 | 42.23629 | 99.38207 | 38932 ft | 511 kts | 93° |
| 2026-05-08 06:46 | 42.23056 | 99.47755 | 38923 ft | 511 kts | 93° |
| 2026-05-08 06:46 | 42.22473 | 99.57325 | 38923 ft | 511 kts | 93° |
| 2026-05-08 06:47 | 42.21883 | 99.66885 | 38922 ft | 511 kts | 93° |
| 2026-05-08 06:47 | 42.21284 | 99.76448 | 38922 ft | 512 kts | 93° |
| 2026-05-08 06:48 | 42.20681 | 99.85952 | 38918 ft | 512 kts | 93° |
| 2026-05-08 06:48 | 42.20067 | 99.95515 | 38912 ft | 512 kts | 93° |
| 2026-05-08 06:49 | 42.19443 | 100.05090 | 38910 ft | 513 kts | 94° |
| 2026-05-08 06:49 | 42.18812 | 100.14667 | 38906 ft | 513 kts | 94° |
| 2026-05-08 06:50 | 42.18172 | 100.24247 | 38908 ft | 513 kts | 94° |
| 2026-05-08 06:50 | 42.17523 | 100.33831 | 38903 ft | 513 kts | 94° |
| 2026-05-08 06:51 | 42.16867 | 100.43420 | 38905 ft | 514 kts | 94° |
| 2026-05-08 06:51 | 42.16202 | 100.53006 | 38901 ft | 514 kts | 94° |
| 2026-05-08 06:52 | 42.15528 | 100.62601 | 38901 ft | 514 kts | 94° |
| 2026-05-08 06:52 | 42.14846 | 100.72206 | 38894 ft | 514 kts | 94° |
| 2026-05-08 06:53 | 42.14161 | 100.81745 | 38899 ft | 515 kts | 94° |
| 2026-05-08 06:53 | 42.13458 | 100.91408 | 38895 ft | 515 kts | 94° |
| 2026-05-08 06:54 | 42.12730 | 101.01026 | 38883 ft | 516 kts | 97° |
| 2026-05-08 06:54 | 42.10963 | 101.10306 | 38896 ft | 517 kts | 108° |
| 2026-05-08 06:55 | 42.08614 | 101.19476 | 38887 ft | 518 kts | 110° |
| 2026-05-08 06:55 | 42.06183 | 101.28593 | 38883 ft | 518 kts | 110° |
| 2026-05-08 06:56 | 42.03747 | 101.37742 | 38884 ft | 518 kts | 110° |
| 2026-05-08 06:56 | 42.01326 | 101.46877 | 38889 ft | 518 kts | 110° |
| 2026-05-08 06:57 | 41.98902 | 101.56014 | 38881 ft | 519 kts | 110° |
| 2026-05-08 06:57 | 41.96489 | 101.65081 | 38891 ft | 519 kts | 110° |
| 2026-05-08 06:58 | 41.94045 | 101.74221 | 38897 ft | 519 kts | 110° |
| 2026-05-08 06:58 | 41.91596 | 101.83347 | 38896 ft | 520 kts | 110° |
| 2026-05-08 06:59 | 41.89136 | 101.92477 | 38879 ft | 520 kts | 110° |
| 2026-05-08 06:59 | 41.86673 | 102.01587 | 38888 ft | 520 kts | 110° |
| 2026-05-08 07:00 | 41.84188 | 102.10742 | 38889 ft | 521 kts | 111° |
| 2026-05-08 07:00 | 41.81717 | 102.19815 | 38899 ft | 521 kts | 111° |
| 2026-05-08 07:01 | 41.79222 | 102.28943 | 38898 ft | 522 kts | 111° |
| 2026-05-08 07:01 | 41.76716 | 102.38075 | 38901 ft | 522 kts | 111° |
| 2026-05-08 07:02 | 41.74202 | 102.47202 | 38903 ft | 522 kts | 111° |
| 2026-05-08 07:02 | 41.71681 | 102.56322 | 38898 ft | 522 kts | 111° |
| 2026-05-08 07:03 | 41.69153 | 102.65438 | 38892 ft | 522 kts | 111° |
| 2026-05-08 07:03 | 41.66619 | 102.74545 | 38890 ft | 523 kts | 111° |
| 2026-05-08 07:04 | 41.64087 | 102.83612 | 38893 ft | 523 kts | 111° |
| 2026-05-08 07:04 | 41.61531 | 102.92724 | 38897 ft | 524 kts | 111° |
| 2026-05-08 07:05 | 41.58971 | 103.01836 | 38893 ft | 524 kts | 111° |
| 2026-05-08 07:05 | 41.56398 | 103.10951 | 38893 ft | 524 kts | 112° |
| 2026-05-08 07:06 | 41.53811 | 103.20064 | 38892 ft | 525 kts | 112° |
| 2026-05-08 07:06 | 41.51215 | 103.29180 | 38889 ft | 525 kts | 112° |
| 2026-05-08 07:07 | 41.48632 | 103.38223 | 38893 ft | 526 kts | 112° |
| 2026-05-08 07:07 | 41.46021 | 103.47335 | 38896 ft | 526 kts | 112° |
| 2026-05-08 07:08 | 41.43401 | 103.56446 | 38899 ft | 526 kts | 112° |
| 2026-05-08 07:08 | 41.40775 | 103.65544 | 38884 ft | 526 kts | 112° |
| 2026-05-08 07:09 | 41.38136 | 103.74655 | 38881 ft | 527 kts | 112° |
| 2026-05-08 07:09 | 41.35495 | 103.83743 | 38881 ft | 527 kts | 112° |
| 2026-05-08 07:10 | 41.32842 | 103.92838 | 38890 ft | 527 kts | 112° |
| 2026-05-08 07:10 | 41.30180 | 104.01931 | 38892 ft | 527 kts | 112° |
| 2026-05-08 07:11 | 41.27510 | 104.11022 | 38879 ft | 528 kts | 112° |
| 2026-05-08 07:11 | 41.24849 | 104.20049 | 38882 ft | 528 kts | 112° |
| 2026-05-08 07:12 | 41.22163 | 104.29131 | 38880 ft | 528 kts | 112° |
| 2026-05-08 07:12 | 41.19469 | 104.38208 | 38895 ft | 528 kts | 112° |
| 2026-05-08 07:13 | 41.16769 | 104.47273 | 38899 ft | 528 kts | 112° |
| 2026-05-08 07:13 | 41.14061 | 104.56335 | 38904 ft | 528 kts | 113° |
| 2026-05-08 07:14 | 41.11350 | 104.65375 | 38897 ft | 528 kts | 113° |
| 2026-05-08 07:14 | 41.08601 | 104.74402 | 38919 ft | 528 kts | 114° |
| 2026-05-08 07:15 | 41.05604 | 104.83271 | 38918 ft | 527 kts | 116° |
| 2026-05-08 07:15 | 41.02546 | 104.92096 | 38917 ft | 527 kts | 116° |
| 2026-05-08 07:16 | 40.99507 | 105.00959 | 38920 ft | 528 kts | 116° |
| 2026-05-08 07:16 | 40.96495 | 105.09807 | 38924 ft | 528 kts | 116° |
| 2026-05-08 07:17 | 40.93479 | 105.18659 | 38923 ft | 528 kts | 116° |
| 2026-05-08 07:17 | 40.90452 | 105.27511 | 38930 ft | 528 kts | 116° |
| 2026-05-08 07:18 | 40.87435 | 105.36299 | 38936 ft | 528 kts | 116° |
| 2026-05-08 07:18 | 40.84394 | 105.45129 | 38937 ft | 528 kts | 116° |
| 2026-05-08 07:19 | 40.81345 | 105.53954 | 38946 ft | 528 kts | 116° |
| 2026-05-08 07:19 | 40.78290 | 105.62771 | 38950 ft | 528 kts | 116° |
| 2026-05-08 07:20 | 40.75231 | 105.71573 | 38957 ft | 528 kts | 116° |
| 2026-05-08 07:20 | 40.72685 | 105.78875 | 38959 ft | 528 kts | 116° |
| 2026-05-08 07:21 | 40.69609 | 105.87675 | 38959 ft | 528 kts | 116° |
| 2026-05-08 07:21 | 40.66525 | 105.96467 | 38966 ft | 529 kts | 116° |
| 2026-05-08 07:22 | 40.63435 | 106.05251 | 38969 ft | 529 kts | 116° |
| 2026-05-08 07:22 | 40.60339 | 106.14029 | 38966 ft | 529 kts | 116° |
| 2026-05-08 07:23 | 40.57232 | 106.22808 | 38964 ft | 529 kts | 116° |
| 2026-05-08 07:23 | 40.54123 | 106.31567 | 38964 ft | 529 kts | 116° |
| 2026-05-08 07:24 | 40.51006 | 106.40321 | 38958 ft | 528 kts | 116° |
| 2026-05-08 07:24 | 40.47886 | 106.49052 | 38955 ft | 528 kts | 117° |
| 2026-05-08 07:25 | 40.44764 | 106.57767 | 38954 ft | 527 kts | 117° |
| 2026-05-08 07:26 | 40.40067 | 106.70829 | 38957 ft | 528 kts | 117° |
| 2026-05-08 07:26 | 40.36922 | 106.79541 | 38958 ft | 528 kts | 117° |
| 2026-05-08 07:27 | 40.33801 | 106.88187 | 38962 ft | 529 kts | 116° |
| 2026-05-08 07:27 | 40.31779 | 106.97425 | 38970 ft | 529 kts | 95° |
| 2026-05-08 07:27 | 40.31681 | 107.02233 | 38969 ft | 527 kts | 84° |
| 2026-05-08 07:28 | 40.32088 | 107.06992 | 38963 ft | 526 kts | 79° |
| 2026-05-08 07:28 | 40.33246 | 107.16463 | 38966 ft | 526 kts | 78° |
| 2026-05-08 07:29 | 40.34489 | 107.25917 | 38965 ft | 526 kts | 78° |
| 2026-05-08 07:29 | 40.35690 | 107.35400 | 38959 ft | 527 kts | 78° |
| 2026-05-08 07:30 | 40.36850 | 107.44879 | 38960 ft | 526 kts | 78° |
| 2026-05-08 07:30 | 40.37994 | 107.54355 | 38957 ft | 526 kts | 78° |
| 2026-05-08 07:31 | 40.39129 | 107.63823 | 38959 ft | 526 kts | 79° |
| 2026-05-08 07:31 | 40.40259 | 107.73295 | 38964 ft | 525 kts | 79° |
| 2026-05-08 07:32 | 40.41381 | 107.82769 | 38960 ft | 525 kts | 79° |
| 2026-05-08 07:32 | 40.42488 | 107.92182 | 38950 ft | 525 kts | 79° |
| 2026-05-08 07:33 | 40.43593 | 108.01646 | 38952 ft | 524 kts | 79° |
| 2026-05-08 07:33 | 40.44687 | 108.11109 | 38953 ft | 524 kts | 79° |
| 2026-05-08 07:34 | 40.45771 | 108.20570 | 38946 ft | 524 kts | 79° |
| 2026-05-08 07:34 | 40.46849 | 108.30041 | 38950 ft | 524 kts | 79° |
| 2026-05-08 07:35 | 40.47913 | 108.39457 | 38942 ft | 524 kts | 79° |
| 2026-05-08 07:35 | 40.48975 | 108.48920 | 38944 ft | 524 kts | 79° |
| 2026-05-08 07:36 | 40.50029 | 108.58395 | 38939 ft | 524 kts | 79° |
| 2026-05-08 07:36 | 40.51076 | 108.67870 | 38938 ft | 524 kts | 79° |
| 2026-05-08 07:37 | 40.52114 | 108.77342 | 38939 ft | 524 kts | 79° |
| 2026-05-08 07:37 | 40.53146 | 108.86826 | 38936 ft | 524 kts | 79° |
| 2026-05-08 07:38 | 40.54170 | 108.96320 | 38938 ft | 524 kts | 79° |
| 2026-05-08 07:38 | 40.55185 | 109.05797 | 38941 ft | 524 kts | 80° |
| 2026-05-08 07:39 | 40.56193 | 109.15288 | 38943 ft | 524 kts | 80° |
| 2026-05-08 07:39 | 40.57192 | 109.24775 | 38950 ft | 524 kts | 80° |
| 2026-05-08 07:40 | 40.58179 | 109.34214 | 38952 ft | 523 kts | 80° |
| 2026-05-08 07:40 | 40.59162 | 109.43697 | 38952 ft | 523 kts | 80° |
| 2026-05-08 07:41 | 40.60144 | 109.53249 | 38958 ft | 523 kts | 80° |
| 2026-05-08 07:41 | 40.61105 | 109.62677 | 38961 ft | 523 kts | 80° |
| 2026-05-08 07:42 | 40.62065 | 109.72166 | 38967 ft | 523 kts | 80° |
| 2026-05-08 07:42 | 40.63018 | 109.81665 | 38969 ft | 523 kts | 80° |
| 2026-05-08 07:43 | 40.63961 | 109.91155 | 38970 ft | 523 kts | 80° |
| 2026-05-08 07:43 | 40.64621 | 110.00677 | 38978 ft | 524 kts | 87° |
| 2026-05-08 07:44 | 40.64658 | 110.10303 | 38986 ft | 525 kts | 89° |
| 2026-05-08 07:44 | 40.64595 | 110.19855 | 38989 ft | 525 kts | 89° |
| 2026-05-08 07:45 | 40.64520 | 110.29469 | 38996 ft | 525 kts | 89° |
| 2026-05-08 07:45 | 40.64448 | 110.39078 | 38996 ft | 525 kts | 89° |
| 2026-05-08 07:46 | 40.64373 | 110.48698 | 39005 ft | 525 kts | 89° |
| 2026-05-08 07:46 | 40.64291 | 110.58303 | 39011 ft | 524 kts | 89° |
| 2026-05-08 07:47 | 40.64206 | 110.67910 | 39014 ft | 524 kts | 89° |
| 2026-05-08 07:47 | 40.64112 | 110.77514 | 39017 ft | 525 kts | 89° |
| 2026-05-08 07:48 | 40.64007 | 110.87138 | 39010 ft | 525 kts | 89° |
| 2026-05-08 07:48 | 40.63897 | 110.96691 | 39012 ft | 526 kts | 89° |
| 2026-05-08 07:49 | 40.63778 | 111.06320 | 39013 ft | 526 kts | 89° |
| 2026-05-08 07:49 | 40.63650 | 111.15947 | 39011 ft | 526 kts | 89° |
| 2026-05-08 07:50 | 40.63520 | 111.25579 | 39020 ft | 526 kts | 89° |
| 2026-05-08 07:50 | 40.63375 | 111.35206 | 39014 ft | 526 kts | 89° |
| 2026-05-08 07:51 | 40.63220 | 111.44831 | 39017 ft | 526 kts | 89° |
| 2026-05-08 07:51 | 40.63061 | 111.54451 | 39028 ft | 525 kts | 89° |
| 2026-05-08 07:52 | 40.62893 | 111.64073 | 39024 ft | 525 kts | 89° |
| 2026-05-08 07:52 | 40.62718 | 111.73683 | 39038 ft | 525 kts | 89° |
| 2026-05-08 07:53 | 40.62535 | 111.83321 | 39033 ft | 526 kts | 89° |
| 2026-05-08 07:53 | 40.62348 | 111.92877 | 39043 ft | 525 kts | 89° |
| 2026-05-08 07:54 | 40.62158 | 112.02499 | 39046 ft | 526 kts | 90° |
| 2026-05-08 07:54 | 40.61945 | 112.12123 | 39048 ft | 526 kts | 90° |
| 2026-05-08 07:55 | 40.61724 | 112.21753 | 39055 ft | 526 kts | 90° |
| 2026-05-08 07:55 | 40.61497 | 112.31387 | 39043 ft | 526 kts | 90° |
| 2026-05-08 07:56 | 40.61263 | 112.41015 | 39044 ft | 526 kts | 90° |
| 2026-05-08 07:56 | 40.61023 | 112.50646 | 39043 ft | 527 kts | 90° |
| 2026-05-08 07:57 | 40.60556 | 112.60288 | 39040 ft | 528 kts | 93° |
| 2026-05-08 07:57 | 40.59935 | 112.69859 | 39037 ft | 528 kts | 93° |
| 2026-05-08 07:58 | 40.59253 | 112.79506 | 39032 ft | 529 kts | 95° |
| 2026-05-08 07:58 | 40.58456 | 112.89140 | 39024 ft | 529 kts | 94° |
| 2026-05-08 07:59 | 40.57806 | 112.98778 | 39017 ft | 530 kts | 93° |
| 2026-05-08 07:59 | 40.57180 | 113.08435 | 39012 ft | 530 kts | 93° |
| 2026-05-08 08:00 | 40.56535 | 113.18102 | 39012 ft | 530 kts | 93° |
| 2026-05-08 08:00 | 40.55872 | 113.27762 | 39009 ft | 531 kts | 93° |
| 2026-05-08 08:01 | 40.55197 | 113.37432 | 39000 ft | 531 kts | 93° |
| 2026-05-08 08:01 | 40.54519 | 113.47047 | 39002 ft | 532 kts | 93° |
| 2026-05-08 08:02 | 40.53823 | 113.56795 | 38997 ft | 532 kts | 93° |
| 2026-05-08 08:02 | 40.53130 | 113.66410 | 38995 ft | 532 kts | 94° |
| 2026-05-08 08:03 | 40.52421 | 113.76101 | 38986 ft | 533 kts | 94° |
| 2026-05-08 08:03 | 40.51705 | 113.85796 | 38984 ft | 533 kts | 94° |
| 2026-05-08 08:04 | 40.50981 | 113.95483 | 38983 ft | 532 kts | 94° |
| 2026-05-08 08:04 | 40.50317 | 114.05165 | 38965 ft | 531 kts | 91° |
| 2026-05-08 08:05 | 40.49944 | 114.14866 | 38963 ft | 531 kts | 90° |
| 2026-05-08 08:05 | 40.49602 | 114.24570 | 38959 ft | 531 kts | 90° |
| 2026-05-08 08:06 | 40.49207 | 114.34265 | 38960 ft | 531 kts | 91° |
| 2026-05-08 08:06 | 40.48778 | 114.43903 | 38959 ft | 531 kts | 91° |
| 2026-05-08 08:07 | 40.48334 | 114.53597 | 38964 ft | 532 kts | 91° |
| 2026-05-08 08:07 | 40.47884 | 114.63287 | 38966 ft | 532 kts | 91° |
| 2026-05-08 08:08 | 40.47426 | 114.72991 | 38972 ft | 533 kts | 91° |
| 2026-05-08 08:08 | 40.47036 | 114.81138 | 38978 ft | 533 kts | 91° |
| 2026-05-08 08:09 | 40.46566 | 114.90776 | 38988 ft | 533 kts | 91° |
| 2026-05-08 08:09 | 40.46085 | 115.00476 | 38989 ft | 533 kts | 91° |
| 2026-05-08 08:10 | 40.45596 | 115.10184 | 39004 ft | 533 kts | 91° |
| 2026-05-08 08:10 | 40.45094 | 115.19886 | 39018 ft | 533 kts | 91° |
| 2026-05-08 08:11 | 40.44583 | 115.29607 | 39018 ft | 533 kts | 91° |
| 2026-05-08 08:11 | 40.44073 | 115.39325 | 39017 ft | 534 kts | 91° |